<?xml version="1.0" encoding="UTF-8" standalone="no" ?>
<gpx xmlns="http://www.topografix.com/GPX/1/1" xmlns:xsi="http://www.w3.org/2001/XMLSchema-instance" xsi:schemaLocation="http://www.topografix.com/GPX/1/1 http://www.topografix.com/GPX/1/1/gpx.xsd" version="1.1" creator="VisuGPX - https://www.visugpx.com">
  <metadata>
    <name>25 Bosses par Diplodocus</name>
    <desc><![CDATA[25 Bosses par Diplodocus]]></desc>
  </metadata>
  <trk>
    <name><![CDATA[25 bosses footing par Diplodocus 01-09-2007]]></name>
    <trkseg>
      <trkpt lat="48.37262" lon="2.51065">
        <ele>70</ele>
        <time>2007-09-01T11:01:42Z</time>
      </trkpt>
      <trkpt lat="48.37256" lon="2.51046">
        <ele>69</ele>
        <time>2007-09-01T11:01:45Z</time>
      </trkpt>
      <trkpt lat="48.37275" lon="2.51073">
        <ele>69</ele>
        <time>2007-09-01T11:02:19Z</time>
      </trkpt>
      <trkpt lat="48.37289" lon="2.5108">
        <ele>69</ele>
        <time>2007-09-01T11:02:26Z</time>
      </trkpt>
      <trkpt lat="48.37295" lon="2.511">
        <ele>69</ele>
        <time>2007-09-01T11:02:35Z</time>
      </trkpt>
      <trkpt lat="48.3731" lon="2.51112">
        <ele>69</ele>
        <time>2007-09-01T11:02:41Z</time>
      </trkpt>
      <trkpt lat="48.37328" lon="2.51122">
        <ele>69</ele>
        <time>2007-09-01T11:02:47Z</time>
      </trkpt>
      <trkpt lat="48.37341" lon="2.5113">
        <ele>69</ele>
        <time>2007-09-01T11:02:53Z</time>
      </trkpt>
      <trkpt lat="48.37355" lon="2.5114">
        <ele>69</ele>
        <time>2007-09-01T11:03:01Z</time>
      </trkpt>
      <trkpt lat="48.3737" lon="2.51145">
        <ele>69</ele>
        <time>2007-09-01T11:03:07Z</time>
      </trkpt>
      <trkpt lat="48.37383" lon="2.51151">
        <ele>69</ele>
        <time>2007-09-01T11:03:14Z</time>
      </trkpt>
      <trkpt lat="48.37397" lon="2.51155">
        <ele>69</ele>
        <time>2007-09-01T11:03:20Z</time>
      </trkpt>
      <trkpt lat="48.37412" lon="2.51158">
        <ele>69</ele>
        <time>2007-09-01T11:03:28Z</time>
      </trkpt>
      <trkpt lat="48.37427" lon="2.5116">
        <ele>68</ele>
        <time>2007-09-01T11:03:34Z</time>
      </trkpt>
      <trkpt lat="48.3744" lon="2.51164">
        <ele>68</ele>
        <time>2007-09-01T11:03:43Z</time>
      </trkpt>
      <trkpt lat="48.37454" lon="2.51172">
        <ele>68</ele>
        <time>2007-09-01T11:03:48Z</time>
      </trkpt>
      <trkpt lat="48.37473" lon="2.51185">
        <ele>68</ele>
        <time>2007-09-01T11:03:58Z</time>
      </trkpt>
      <trkpt lat="48.37503" lon="2.51205">
        <ele>67</ele>
        <time>2007-09-01T11:04:08Z</time>
      </trkpt>
      <trkpt lat="48.37517" lon="2.51208">
        <ele>67</ele>
        <time>2007-09-01T11:04:13Z</time>
      </trkpt>
      <trkpt lat="48.37529" lon="2.51218">
        <ele>67</ele>
        <time>2007-09-01T11:04:19Z</time>
      </trkpt>
      <trkpt lat="48.37542" lon="2.51229">
        <ele>67</ele>
        <time>2007-09-01T11:04:23Z</time>
      </trkpt>
      <trkpt lat="48.37553" lon="2.51242">
        <ele>67</ele>
        <time>2007-09-01T11:04:30Z</time>
      </trkpt>
      <trkpt lat="48.37569" lon="2.51277">
        <ele>67</ele>
        <time>2007-09-01T11:04:47Z</time>
      </trkpt>
      <trkpt lat="48.37581" lon="2.5129">
        <ele>67</ele>
        <time>2007-09-01T11:04:51Z</time>
      </trkpt>
      <trkpt lat="48.37598" lon="2.5128">
        <ele>67</ele>
        <time>2007-09-01T11:05:08Z</time>
      </trkpt>
      <trkpt lat="48.37611" lon="2.51277">
        <ele>67</ele>
        <time>2007-09-01T11:05:14Z</time>
      </trkpt>
      <trkpt lat="48.37625" lon="2.51269">
        <ele>67</ele>
        <time>2007-09-01T11:05:23Z</time>
      </trkpt>
      <trkpt lat="48.37638" lon="2.51269">
        <ele>67</ele>
        <time>2007-09-01T11:05:30Z</time>
      </trkpt>
      <trkpt lat="48.3765" lon="2.51259">
        <ele>68</ele>
        <time>2007-09-01T11:05:39Z</time>
      </trkpt>
      <trkpt lat="48.37665" lon="2.51256">
        <ele>69</ele>
        <time>2007-09-01T11:05:50Z</time>
      </trkpt>
      <trkpt lat="48.37679" lon="2.5125">
        <ele>69</ele>
        <time>2007-09-01T11:05:59Z</time>
      </trkpt>
      <trkpt lat="48.37694" lon="2.51256">
        <ele>70</ele>
        <time>2007-09-01T11:06:07Z</time>
      </trkpt>
      <trkpt lat="48.37707" lon="2.51266">
        <ele>71</ele>
        <time>2007-09-01T11:06:12Z</time>
      </trkpt>
      <trkpt lat="48.37721" lon="2.51277">
        <ele>71</ele>
        <time>2007-09-01T11:06:20Z</time>
      </trkpt>
      <trkpt lat="48.37734" lon="2.51293">
        <ele>71</ele>
        <time>2007-09-01T11:06:37Z</time>
      </trkpt>
      <trkpt lat="48.37748" lon="2.51299">
        <ele>71</ele>
        <time>2007-09-01T11:06:44Z</time>
      </trkpt>
      <trkpt lat="48.37758" lon="2.51283">
        <ele>70</ele>
        <time>2007-09-01T11:06:53Z</time>
      </trkpt>
      <trkpt lat="48.3777" lon="2.51266">
        <ele>69</ele>
        <time>2007-09-01T11:07:01Z</time>
      </trkpt>
      <trkpt lat="48.37778" lon="2.51247">
        <ele>68</ele>
        <time>2007-09-01T11:07:08Z</time>
      </trkpt>
      <trkpt lat="48.37785" lon="2.51229">
        <ele>67</ele>
        <time>2007-09-01T11:07:15Z</time>
      </trkpt>
      <trkpt lat="48.37797" lon="2.51215">
        <ele>66</ele>
        <time>2007-09-01T11:07:24Z</time>
      </trkpt>
      <trkpt lat="48.37811" lon="2.51203">
        <ele>66</ele>
        <time>2007-09-01T11:07:32Z</time>
      </trkpt>
      <trkpt lat="48.37823" lon="2.5119">
        <ele>66</ele>
        <time>2007-09-01T11:07:40Z</time>
      </trkpt>
      <trkpt lat="48.37836" lon="2.51178">
        <ele>66</ele>
        <time>2007-09-01T11:07:47Z</time>
      </trkpt>
      <trkpt lat="48.37847" lon="2.51164">
        <ele>66</ele>
        <time>2007-09-01T11:07:54Z</time>
      </trkpt>
      <trkpt lat="48.37856" lon="2.51148">
        <ele>67</ele>
        <time>2007-09-01T11:08:01Z</time>
      </trkpt>
      <trkpt lat="48.37865" lon="2.51131">
        <ele>68</ele>
        <time>2007-09-01T11:08:08Z</time>
      </trkpt>
      <trkpt lat="48.37869" lon="2.51112">
        <ele>69</ele>
        <time>2007-09-01T11:08:14Z</time>
      </trkpt>
      <trkpt lat="48.37878" lon="2.51092">
        <ele>71</ele>
        <time>2007-09-01T11:08:23Z</time>
      </trkpt>
      <trkpt lat="48.3789" lon="2.51082">
        <ele>73</ele>
        <time>2007-09-01T11:08:31Z</time>
      </trkpt>
      <trkpt lat="48.37904" lon="2.51076">
        <ele>76</ele>
        <time>2007-09-01T11:08:40Z</time>
      </trkpt>
      <trkpt lat="48.37917" lon="2.51076">
        <ele>79</ele>
        <time>2007-09-01T11:08:50Z</time>
      </trkpt>
      <trkpt lat="48.37931" lon="2.51085">
        <ele>82</ele>
        <time>2007-09-01T11:08:59Z</time>
      </trkpt>
      <trkpt lat="48.37943" lon="2.51073">
        <ele>86</ele>
        <time>2007-09-01T11:09:24Z</time>
      </trkpt>
      <trkpt lat="48.37956" lon="2.51068">
        <ele>91</ele>
        <time>2007-09-01T11:09:48Z</time>
      </trkpt>
      <trkpt lat="48.37968" lon="2.5108">
        <ele>94</ele>
        <time>2007-09-01T11:10:05Z</time>
      </trkpt>
      <trkpt lat="48.37982" lon="2.51082">
        <ele>98</ele>
        <time>2007-09-01T11:10:27Z</time>
      </trkpt>
      <trkpt lat="48.37994" lon="2.5107">
        <ele>100</ele>
        <time>2007-09-01T11:11:07Z</time>
      </trkpt>
      <trkpt lat="48.38006" lon="2.51085">
        <ele>98</ele>
        <time>2007-09-01T11:11:24Z</time>
      </trkpt>
      <trkpt lat="48.38013" lon="2.51104">
        <ele>97</ele>
        <time>2007-09-01T11:11:42Z</time>
      </trkpt>
      <trkpt lat="48.38021" lon="2.51122">
        <ele>96</ele>
        <time>2007-09-01T11:12:08Z</time>
      </trkpt>
      <trkpt lat="48.38033" lon="2.51133">
        <ele>98</ele>
        <time>2007-09-01T11:12:25Z</time>
      </trkpt>
      <trkpt lat="48.38043" lon="2.51146">
        <ele>99</ele>
        <time>2007-09-01T11:12:35Z</time>
      </trkpt>
      <trkpt lat="48.38051" lon="2.51166">
        <ele>101</ele>
        <time>2007-09-01T11:12:44Z</time>
      </trkpt>
      <trkpt lat="48.38063" lon="2.51176">
        <ele>102</ele>
        <time>2007-09-01T11:12:52Z</time>
      </trkpt>
      <trkpt lat="48.38066" lon="2.51197">
        <ele>99</ele>
        <time>2007-09-01T11:13:12Z</time>
      </trkpt>
      <trkpt lat="48.38076" lon="2.51218">
        <ele>99</ele>
        <time>2007-09-01T11:13:29Z</time>
      </trkpt>
      <trkpt lat="48.38087" lon="2.51232">
        <ele>100</ele>
        <time>2007-09-01T11:13:48Z</time>
      </trkpt>
      <trkpt lat="48.381" lon="2.51232">
        <ele>104</ele>
        <time>2007-09-01T11:14:16Z</time>
      </trkpt>
      <trkpt lat="48.38114" lon="2.51238">
        <ele>105</ele>
        <time>2007-09-01T11:14:26Z</time>
      </trkpt>
      <trkpt lat="48.38129" lon="2.51241">
        <ele>104</ele>
        <time>2007-09-01T11:15:00Z</time>
      </trkpt>
      <trkpt lat="48.38141" lon="2.51251">
        <ele>98</ele>
        <time>2007-09-01T11:15:10Z</time>
      </trkpt>
      <trkpt lat="48.38157" lon="2.51256">
        <ele>94</ele>
        <time>2007-09-01T11:15:27Z</time>
      </trkpt>
      <trkpt lat="48.38171" lon="2.51248">
        <ele>93</ele>
        <time>2007-09-01T11:15:48Z</time>
      </trkpt>
      <trkpt lat="48.38186" lon="2.51253">
        <ele>89</ele>
        <time>2007-09-01T11:16:05Z</time>
      </trkpt>
      <trkpt lat="48.38199" lon="2.5125">
        <ele>88</ele>
        <time>2007-09-01T11:16:15Z</time>
      </trkpt>
      <trkpt lat="48.38213" lon="2.5125">
        <ele>85</ele>
        <time>2007-09-01T11:16:32Z</time>
      </trkpt>
      <trkpt lat="48.38226" lon="2.51253">
        <ele>84</ele>
        <time>2007-09-01T11:16:45Z</time>
      </trkpt>
      <trkpt lat="48.38241" lon="2.51268">
        <ele>83</ele>
        <time>2007-09-01T11:17:02Z</time>
      </trkpt>
      <trkpt lat="48.38255" lon="2.51274">
        <ele>82</ele>
        <time>2007-09-01T11:17:08Z</time>
      </trkpt>
      <trkpt lat="48.38261" lon="2.51293">
        <ele>82</ele>
        <time>2007-09-01T11:17:21Z</time>
      </trkpt>
      <trkpt lat="48.38273" lon="2.51311">
        <ele>85</ele>
        <time>2007-09-01T11:17:32Z</time>
      </trkpt>
      <trkpt lat="48.38285" lon="2.51322">
        <ele>87</ele>
        <time>2007-09-01T11:17:43Z</time>
      </trkpt>
      <trkpt lat="48.38294" lon="2.51338">
        <ele>90</ele>
        <time>2007-09-01T11:17:51Z</time>
      </trkpt>
      <trkpt lat="48.38309" lon="2.51346">
        <ele>93</ele>
        <time>2007-09-01T11:18:01Z</time>
      </trkpt>
      <trkpt lat="48.3831" lon="2.5137">
        <ele>95</ele>
        <time>2007-09-01T11:18:18Z</time>
      </trkpt>
      <trkpt lat="48.38324" lon="2.51379">
        <ele>96</ele>
        <time>2007-09-01T11:18:38Z</time>
      </trkpt>
      <trkpt lat="48.3833" lon="2.51398">
        <ele>97</ele>
        <time>2007-09-01T11:18:49Z</time>
      </trkpt>
      <trkpt lat="48.38324" lon="2.51418">
        <ele>98</ele>
        <time>2007-09-01T11:18:59Z</time>
      </trkpt>
      <trkpt lat="48.38327" lon="2.5144">
        <ele>98</ele>
        <time>2007-09-01T11:19:09Z</time>
      </trkpt>
      <trkpt lat="48.38342" lon="2.51452">
        <ele>97</ele>
        <time>2007-09-01T11:19:14Z</time>
      </trkpt>
      <trkpt lat="48.38354" lon="2.51463">
        <ele>95</ele>
        <time>2007-09-01T11:19:18Z</time>
      </trkpt>
      <trkpt lat="48.38346" lon="2.51482">
        <ele>93</ele>
        <time>2007-09-01T11:19:28Z</time>
      </trkpt>
      <trkpt lat="48.38343" lon="2.51503">
        <ele>91</ele>
        <time>2007-09-01T11:19:37Z</time>
      </trkpt>
      <trkpt lat="48.38351" lon="2.51521">
        <ele>89</ele>
        <time>2007-09-01T11:19:44Z</time>
      </trkpt>
      <trkpt lat="48.3834" lon="2.51538">
        <ele>89</ele>
        <time>2007-09-01T11:19:54Z</time>
      </trkpt>
      <trkpt lat="48.38325" lon="2.51551">
        <ele>88</ele>
        <time>2007-09-01T11:20:02Z</time>
      </trkpt>
      <trkpt lat="48.38334" lon="2.51571">
        <ele>88</ele>
        <time>2007-09-01T11:20:07Z</time>
      </trkpt>
      <trkpt lat="48.38337" lon="2.51592">
        <ele>92</ele>
        <time>2007-09-01T11:20:14Z</time>
      </trkpt>
      <trkpt lat="48.38327" lon="2.51605">
        <ele>95</ele>
        <time>2007-09-01T11:20:22Z</time>
      </trkpt>
      <trkpt lat="48.38324" lon="2.51626">
        <ele>100</ele>
        <time>2007-09-01T11:20:39Z</time>
      </trkpt>
      <trkpt lat="48.38307" lon="2.51638">
        <ele>103</ele>
        <time>2007-09-01T11:20:56Z</time>
      </trkpt>
      <trkpt lat="48.38298" lon="2.51656">
        <ele>105</ele>
        <time>2007-09-01T11:21:13Z</time>
      </trkpt>
      <trkpt lat="48.38294" lon="2.51676">
        <ele>107</ele>
        <time>2007-09-01T11:21:32Z</time>
      </trkpt>
      <trkpt lat="48.38283" lon="2.51689">
        <ele>106</ele>
        <time>2007-09-01T11:21:45Z</time>
      </trkpt>
      <trkpt lat="48.38288" lon="2.5171">
        <ele>107</ele>
        <time>2007-09-01T11:22:06Z</time>
      </trkpt>
      <trkpt lat="48.38301" lon="2.51718">
        <ele>108</ele>
        <time>2007-09-01T11:22:19Z</time>
      </trkpt>
      <trkpt lat="48.38315" lon="2.51721">
        <ele>104</ele>
        <time>2007-09-01T11:22:30Z</time>
      </trkpt>
      <trkpt lat="48.38324" lon="2.51739">
        <ele>97</ele>
        <time>2007-09-01T11:22:54Z</time>
      </trkpt>
      <trkpt lat="48.38337" lon="2.51754">
        <ele>91</ele>
        <time>2007-09-01T11:23:11Z</time>
      </trkpt>
      <trkpt lat="48.38349" lon="2.51766">
        <ele>87</ele>
        <time>2007-09-01T11:23:28Z</time>
      </trkpt>
      <trkpt lat="48.38363" lon="2.51773">
        <ele>84</ele>
        <time>2007-09-01T11:23:40Z</time>
      </trkpt>
      <trkpt lat="48.38376" lon="2.51764">
        <ele>82</ele>
        <time>2007-09-01T11:23:52Z</time>
      </trkpt>
      <trkpt lat="48.38391" lon="2.51775">
        <ele>80</ele>
        <time>2007-09-01T11:24:22Z</time>
      </trkpt>
      <trkpt lat="48.38405" lon="2.51784">
        <ele>81</ele>
        <time>2007-09-01T11:24:30Z</time>
      </trkpt>
      <trkpt lat="48.38415" lon="2.51802">
        <ele>83</ele>
        <time>2007-09-01T11:24:42Z</time>
      </trkpt>
      <trkpt lat="48.38432" lon="2.51809">
        <ele>86</ele>
        <time>2007-09-01T11:24:51Z</time>
      </trkpt>
      <trkpt lat="48.38445" lon="2.51815">
        <ele>88</ele>
        <time>2007-09-01T11:25:02Z</time>
      </trkpt>
      <trkpt lat="48.38429" lon="2.51811">
        <ele>85</ele>
        <time>2007-09-01T11:25:09Z</time>
      </trkpt>
      <trkpt lat="48.38441" lon="2.51821">
        <ele>88</ele>
        <time>2007-09-01T11:25:12Z</time>
      </trkpt>
      <trkpt lat="48.38454" lon="2.51827">
        <ele>91</ele>
        <time>2007-09-01T11:25:15Z</time>
      </trkpt>
      <trkpt lat="48.38457" lon="2.51851">
        <ele>92</ele>
        <time>2007-09-01T11:25:35Z</time>
      </trkpt>
      <trkpt lat="48.38469" lon="2.51862">
        <ele>94</ele>
        <time>2007-09-01T11:25:39Z</time>
      </trkpt>
      <trkpt lat="48.38471" lon="2.51883">
        <ele>94</ele>
        <time>2007-09-01T11:25:51Z</time>
      </trkpt>
      <trkpt lat="48.38474" lon="2.51905">
        <ele>94</ele>
        <time>2007-09-01T11:26:08Z</time>
      </trkpt>
      <trkpt lat="48.38483" lon="2.51928">
        <ele>92</ele>
        <time>2007-09-01T11:26:25Z</time>
      </trkpt>
      <trkpt lat="48.38475" lon="2.51946">
        <ele>92</ele>
        <time>2007-09-01T11:26:42Z</time>
      </trkpt>
      <trkpt lat="48.38468" lon="2.51964">
        <ele>92</ele>
        <time>2007-09-01T11:26:53Z</time>
      </trkpt>
      <trkpt lat="48.38456" lon="2.51979">
        <ele>93</ele>
        <time>2007-09-01T11:27:01Z</time>
      </trkpt>
      <trkpt lat="48.38462" lon="2.51998">
        <ele>91</ele>
        <time>2007-09-01T11:27:12Z</time>
      </trkpt>
      <trkpt lat="48.3845" lon="2.5201">
        <ele>92</ele>
        <time>2007-09-01T11:27:21Z</time>
      </trkpt>
      <trkpt lat="48.38435" lon="2.52015">
        <ele>94</ele>
        <time>2007-09-01T11:27:26Z</time>
      </trkpt>
      <trkpt lat="48.38436" lon="2.52036">
        <ele>94</ele>
        <time>2007-09-01T11:27:38Z</time>
      </trkpt>
      <trkpt lat="48.38423" lon="2.52054">
        <ele>97</ele>
        <time>2007-09-01T11:27:55Z</time>
      </trkpt>
      <trkpt lat="48.38411" lon="2.52064">
        <ele>100</ele>
        <time>2007-09-01T11:28:12Z</time>
      </trkpt>
      <trkpt lat="48.38403" lon="2.52084">
        <ele>103</ele>
        <time>2007-09-01T11:28:29Z</time>
      </trkpt>
      <trkpt lat="48.38388" lon="2.52093">
        <ele>108</ele>
        <time>2007-09-01T11:28:46Z</time>
      </trkpt>
      <trkpt lat="48.38381" lon="2.52111">
        <ele>110</ele>
        <time>2007-09-01T11:29:04Z</time>
      </trkpt>
      <trkpt lat="48.38373" lon="2.52129">
        <ele>111</ele>
        <time>2007-09-01T11:29:13Z</time>
      </trkpt>
      <trkpt lat="48.38364" lon="2.52145">
        <ele>112</ele>
        <time>2007-09-01T11:29:22Z</time>
      </trkpt>
      <trkpt lat="48.38358" lon="2.52165">
        <ele>111</ele>
        <time>2007-09-01T11:29:31Z</time>
      </trkpt>
      <trkpt lat="48.38357" lon="2.52189">
        <ele>107</ele>
        <time>2007-09-01T11:29:42Z</time>
      </trkpt>
      <trkpt lat="48.3837" lon="2.52192">
        <ele>105</ele>
        <time>2007-09-01T11:29:48Z</time>
      </trkpt>
      <trkpt lat="48.38384" lon="2.5219">
        <ele>104</ele>
        <time>2007-09-01T11:29:54Z</time>
      </trkpt>
      <trkpt lat="48.38388" lon="2.5221">
        <ele>99</ele>
        <time>2007-09-01T11:30:18Z</time>
      </trkpt>
      <trkpt lat="48.38399" lon="2.52225">
        <ele>97</ele>
        <time>2007-09-01T11:30:31Z</time>
      </trkpt>
      <trkpt lat="48.38397" lon="2.52246">
        <ele>94</ele>
        <time>2007-09-01T11:30:54Z</time>
      </trkpt>
      <trkpt lat="48.38399" lon="2.52267">
        <ele>91</ele>
        <time>2007-09-01T11:31:12Z</time>
      </trkpt>
      <trkpt lat="48.38412" lon="2.52273">
        <ele>95</ele>
        <time>2007-09-01T11:31:19Z</time>
      </trkpt>
      <trkpt lat="48.38397" lon="2.52276">
        <ele>90</ele>
        <time>2007-09-01T11:31:30Z</time>
      </trkpt>
      <trkpt lat="48.38411" lon="2.52282">
        <ele>93</ele>
        <time>2007-09-01T11:31:37Z</time>
      </trkpt>
      <trkpt lat="48.38424" lon="2.52297">
        <ele>96</ele>
        <time>2007-09-01T11:32:00Z</time>
      </trkpt>
      <trkpt lat="48.38438" lon="2.52294">
        <ele>100</ele>
        <time>2007-09-01T11:32:34Z</time>
      </trkpt>
      <trkpt lat="48.38451" lon="2.52298">
        <ele>100</ele>
        <time>2007-09-01T11:32:43Z</time>
      </trkpt>
      <trkpt lat="48.38463" lon="2.52309">
        <ele>100</ele>
        <time>2007-09-01T11:33:18Z</time>
      </trkpt>
      <trkpt lat="48.38474" lon="2.52322">
        <ele>97</ele>
        <time>2007-09-01T11:33:38Z</time>
      </trkpt>
      <trkpt lat="48.38489" lon="2.52322">
        <ele>95</ele>
        <time>2007-09-01T11:33:55Z</time>
      </trkpt>
      <trkpt lat="48.38505" lon="2.52324">
        <ele>92</ele>
        <time>2007-09-01T11:34:04Z</time>
      </trkpt>
      <trkpt lat="48.38519" lon="2.52318">
        <ele>91</ele>
        <time>2007-09-01T11:34:16Z</time>
      </trkpt>
      <trkpt lat="48.38532" lon="2.52309">
        <ele>90</ele>
        <time>2007-09-01T11:34:48Z</time>
      </trkpt>
      <trkpt lat="48.38546" lon="2.52307">
        <ele>89</ele>
        <time>2007-09-01T11:35:07Z</time>
      </trkpt>
      <trkpt lat="48.38564" lon="2.52294">
        <ele>87</ele>
        <time>2007-09-01T11:35:24Z</time>
      </trkpt>
      <trkpt lat="48.3858" lon="2.52303">
        <ele>84</ele>
        <time>2007-09-01T11:35:46Z</time>
      </trkpt>
      <trkpt lat="48.38595" lon="2.52309">
        <ele>81</ele>
        <time>2007-09-01T11:35:51Z</time>
      </trkpt>
      <trkpt lat="48.38609" lon="2.52318">
        <ele>78</ele>
        <time>2007-09-01T11:35:59Z</time>
      </trkpt>
      <trkpt lat="48.38625" lon="2.5231">
        <ele>76</ele>
        <time>2007-09-01T11:36:16Z</time>
      </trkpt>
      <trkpt lat="48.3864" lon="2.52312">
        <ele>74</ele>
        <time>2007-09-01T11:36:26Z</time>
      </trkpt>
      <trkpt lat="48.38655" lon="2.5231">
        <ele>72</ele>
        <time>2007-09-01T11:36:37Z</time>
      </trkpt>
      <trkpt lat="48.3867" lon="2.52313">
        <ele>73</ele>
        <time>2007-09-01T11:36:40Z</time>
      </trkpt>
      <trkpt lat="48.38685" lon="2.52312">
        <ele>74</ele>
        <time>2007-09-01T11:36:45Z</time>
      </trkpt>
      <trkpt lat="48.38699" lon="2.5231">
        <ele>75</ele>
        <time>2007-09-01T11:36:50Z</time>
      </trkpt>
      <trkpt lat="48.38714" lon="2.52318">
        <ele>77</ele>
        <time>2007-09-01T11:37:01Z</time>
      </trkpt>
      <trkpt lat="48.38727" lon="2.52324">
        <ele>79</ele>
        <time>2007-09-01T11:37:10Z</time>
      </trkpt>
      <trkpt lat="48.38741" lon="2.52325">
        <ele>81</ele>
        <time>2007-09-01T11:37:15Z</time>
      </trkpt>
      <trkpt lat="48.38754" lon="2.52327">
        <ele>84</ele>
        <time>2007-09-01T11:37:21Z</time>
      </trkpt>
      <trkpt lat="48.38765" lon="2.5231">
        <ele>87</ele>
        <time>2007-09-01T11:37:40Z</time>
      </trkpt>
      <trkpt lat="48.38777" lon="2.523">
        <ele>90</ele>
        <time>2007-09-01T11:37:47Z</time>
      </trkpt>
      <trkpt lat="48.38786" lon="2.52283">
        <ele>93</ele>
        <time>2007-09-01T11:37:59Z</time>
      </trkpt>
      <trkpt lat="48.38784" lon="2.52259">
        <ele>94</ele>
        <time>2007-09-01T11:38:16Z</time>
      </trkpt>
      <trkpt lat="48.38801" lon="2.52258">
        <ele>100</ele>
        <time>2007-09-01T11:38:33Z</time>
      </trkpt>
      <trkpt lat="48.38814" lon="2.52265">
        <ele>104</ele>
        <time>2007-09-01T11:38:38Z</time>
      </trkpt>
      <trkpt lat="48.38799" lon="2.52264">
        <ele>99</ele>
        <time>2007-09-01T11:38:47Z</time>
      </trkpt>
      <trkpt lat="48.38814" lon="2.52265">
        <ele>104</ele>
        <time>2007-09-01T11:38:54Z</time>
      </trkpt>
      <trkpt lat="48.38828" lon="2.52268">
        <ele>109</ele>
        <time>2007-09-01T11:39:00Z</time>
      </trkpt>
      <trkpt lat="48.38843" lon="2.52274">
        <ele>112</ele>
        <time>2007-09-01T11:39:40Z</time>
      </trkpt>
      <trkpt lat="48.38856" lon="2.52271">
        <ele>115</ele>
        <time>2007-09-01T11:39:59Z</time>
      </trkpt>
      <trkpt lat="48.3887" lon="2.5227">
        <ele>118</ele>
        <time>2007-09-01T11:40:37Z</time>
      </trkpt>
      <trkpt lat="48.38883" lon="2.5227">
        <ele>120</ele>
        <time>2007-09-01T11:40:49Z</time>
      </trkpt>
      <trkpt lat="48.38895" lon="2.52283">
        <ele>117</ele>
        <time>2007-09-01T11:41:07Z</time>
      </trkpt>
      <trkpt lat="48.38909" lon="2.52283">
        <ele>115</ele>
        <time>2007-09-01T11:41:18Z</time>
      </trkpt>
      <trkpt lat="48.38925" lon="2.5228">
        <ele>112</ele>
        <time>2007-09-01T11:41:38Z</time>
      </trkpt>
      <trkpt lat="48.38933" lon="2.52262">
        <ele>109</ele>
        <time>2007-09-01T11:41:59Z</time>
      </trkpt>
      <trkpt lat="48.38928" lon="2.52241">
        <ele>109</ele>
        <time>2007-09-01T11:42:16Z</time>
      </trkpt>
      <trkpt lat="48.3893" lon="2.52219">
        <ele>106</ele>
        <time>2007-09-01T11:42:35Z</time>
      </trkpt>
      <trkpt lat="48.38934" lon="2.52199">
        <ele>103</ele>
        <time>2007-09-01T11:42:45Z</time>
      </trkpt>
      <trkpt lat="48.38939" lon="2.52178">
        <ele>101</ele>
        <time>2007-09-01T11:42:56Z</time>
      </trkpt>
      <trkpt lat="48.38949" lon="2.52165">
        <ele>96</ele>
        <time>2007-09-01T11:43:02Z</time>
      </trkpt>
      <trkpt lat="48.38964" lon="2.52156">
        <ele>92</ele>
        <time>2007-09-01T11:43:10Z</time>
      </trkpt>
      <trkpt lat="48.38961" lon="2.52133">
        <ele>90</ele>
        <time>2007-09-01T11:43:19Z</time>
      </trkpt>
      <trkpt lat="48.38972" lon="2.5212">
        <ele>88</ele>
        <time>2007-09-01T11:43:25Z</time>
      </trkpt>
      <trkpt lat="48.38979" lon="2.52102">
        <ele>85</ele>
        <time>2007-09-01T11:43:35Z</time>
      </trkpt>
      <trkpt lat="48.38987" lon="2.52084">
        <ele>82</ele>
        <time>2007-09-01T11:43:44Z</time>
      </trkpt>
      <trkpt lat="48.39" lon="2.52076">
        <ele>80</ele>
        <time>2007-09-01T11:43:49Z</time>
      </trkpt>
      <trkpt lat="48.39014" lon="2.52072">
        <ele>78</ele>
        <time>2007-09-01T11:43:54Z</time>
      </trkpt>
      <trkpt lat="48.39015" lon="2.52051">
        <ele>77</ele>
        <time>2007-09-01T11:44:02Z</time>
      </trkpt>
      <trkpt lat="48.3903" lon="2.52046">
        <ele>76</ele>
        <time>2007-09-01T11:44:13Z</time>
      </trkpt>
      <trkpt lat="48.39045" lon="2.52045">
        <ele>76</ele>
        <time>2007-09-01T11:44:20Z</time>
      </trkpt>
      <trkpt lat="48.3906" lon="2.52045">
        <ele>76</ele>
        <time>2007-09-01T11:44:26Z</time>
      </trkpt>
      <trkpt lat="48.39074" lon="2.52046">
        <ele>76</ele>
        <time>2007-09-01T11:44:36Z</time>
      </trkpt>
      <trkpt lat="48.3909" lon="2.52055">
        <ele>77</ele>
        <time>2007-09-01T11:44:48Z</time>
      </trkpt>
      <trkpt lat="48.39104" lon="2.52049">
        <ele>77</ele>
        <time>2007-09-01T11:44:55Z</time>
      </trkpt>
      <trkpt lat="48.39119" lon="2.52055">
        <ele>78</ele>
        <time>2007-09-01T11:45:03Z</time>
      </trkpt>
      <trkpt lat="48.39134" lon="2.5206">
        <ele>78</ele>
        <time>2007-09-01T11:45:09Z</time>
      </trkpt>
      <trkpt lat="48.39141" lon="2.52078">
        <ele>79</ele>
        <time>2007-09-01T11:45:26Z</time>
      </trkpt>
      <trkpt lat="48.39155" lon="2.52087">
        <ele>79</ele>
        <time>2007-09-01T11:45:31Z</time>
      </trkpt>
      <trkpt lat="48.39165" lon="2.52102">
        <ele>80</ele>
        <time>2007-09-01T11:45:37Z</time>
      </trkpt>
      <trkpt lat="48.39179" lon="2.52112">
        <ele>80</ele>
        <time>2007-09-01T11:45:44Z</time>
      </trkpt>
      <trkpt lat="48.39194" lon="2.52117">
        <ele>81</ele>
        <time>2007-09-01T11:45:53Z</time>
      </trkpt>
      <trkpt lat="48.39209" lon="2.52111">
        <ele>83</ele>
        <time>2007-09-01T11:45:59Z</time>
      </trkpt>
      <trkpt lat="48.39215" lon="2.52088">
        <ele>85</ele>
        <time>2007-09-01T11:46:16Z</time>
      </trkpt>
      <trkpt lat="48.39222" lon="2.5207">
        <ele>86</ele>
        <time>2007-09-01T11:46:29Z</time>
      </trkpt>
      <trkpt lat="48.39233" lon="2.52057">
        <ele>89</ele>
        <time>2007-09-01T11:46:39Z</time>
      </trkpt>
      <trkpt lat="48.39236" lon="2.52031">
        <ele>90</ele>
        <time>2007-09-01T11:46:56Z</time>
      </trkpt>
      <trkpt lat="48.39245" lon="2.52013">
        <ele>91</ele>
        <time>2007-09-01T11:47:06Z</time>
      </trkpt>
      <trkpt lat="48.39248" lon="2.51992">
        <ele>92</ele>
        <time>2007-09-01T11:47:16Z</time>
      </trkpt>
      <trkpt lat="48.39239" lon="2.51974">
        <ele>91</ele>
        <time>2007-09-01T11:47:27Z</time>
      </trkpt>
      <trkpt lat="48.39245" lon="2.51955">
        <ele>91</ele>
        <time>2007-09-01T11:47:39Z</time>
      </trkpt>
      <trkpt lat="48.39258" lon="2.51946">
        <ele>93</ele>
        <time>2007-09-01T11:47:46Z</time>
      </trkpt>
      <trkpt lat="48.39266" lon="2.51926">
        <ele>92</ele>
        <time>2007-09-01T11:47:59Z</time>
      </trkpt>
      <trkpt lat="48.39278" lon="2.51916">
        <ele>92</ele>
        <time>2007-09-01T11:48:07Z</time>
      </trkpt>
      <trkpt lat="48.39284" lon="2.51895">
        <ele>93</ele>
        <time>2007-09-01T11:48:24Z</time>
      </trkpt>
      <trkpt lat="48.39297" lon="2.51887">
        <ele>95</ele>
        <time>2007-09-01T11:48:32Z</time>
      </trkpt>
      <trkpt lat="48.39312" lon="2.51886">
        <ele>99</ele>
        <time>2007-09-01T11:48:38Z</time>
      </trkpt>
      <trkpt lat="48.39327" lon="2.51886">
        <ele>102</ele>
        <time>2007-09-01T11:48:45Z</time>
      </trkpt>
      <trkpt lat="48.39341" lon="2.51878">
        <ele>105</ele>
        <time>2007-09-01T11:48:55Z</time>
      </trkpt>
      <trkpt lat="48.39357" lon="2.51866">
        <ele>109</ele>
        <time>2007-09-01T11:49:03Z</time>
      </trkpt>
      <trkpt lat="48.39375" lon="2.51838">
        <ele>113</ele>
        <time>2007-09-01T11:49:21Z</time>
      </trkpt>
      <trkpt lat="48.39378" lon="2.51817">
        <ele>111</ele>
        <time>2007-09-01T11:49:31Z</time>
      </trkpt>
      <trkpt lat="48.3939" lon="2.51802">
        <ele>109</ele>
        <time>2007-09-01T11:49:41Z</time>
      </trkpt>
      <trkpt lat="48.39402" lon="2.51791">
        <ele>107</ele>
        <time>2007-09-01T11:49:48Z</time>
      </trkpt>
      <trkpt lat="48.39416" lon="2.51785">
        <ele>106</ele>
        <time>2007-09-01T11:49:54Z</time>
      </trkpt>
      <trkpt lat="48.39429" lon="2.51778">
        <ele>104</ele>
        <time>2007-09-01T11:50:02Z</time>
      </trkpt>
      <trkpt lat="48.39443" lon="2.51769">
        <ele>100</ele>
        <time>2007-09-01T11:50:09Z</time>
      </trkpt>
      <trkpt lat="48.39458" lon="2.51758">
        <ele>97</ele>
        <time>2007-09-01T11:50:17Z</time>
      </trkpt>
      <trkpt lat="48.39473" lon="2.51751">
        <ele>95</ele>
        <time>2007-09-01T11:50:22Z</time>
      </trkpt>
      <trkpt lat="48.39488" lon="2.51743">
        <ele>96</ele>
        <time>2007-09-01T11:50:31Z</time>
      </trkpt>
      <trkpt lat="48.395" lon="2.5173">
        <ele>97</ele>
        <time>2007-09-01T11:50:43Z</time>
      </trkpt>
      <trkpt lat="48.39491" lon="2.51712">
        <ele>95</ele>
        <time>2007-09-01T11:50:53Z</time>
      </trkpt>
      <trkpt lat="48.39473" lon="2.51707">
        <ele>92</ele>
        <time>2007-09-01T11:50:57Z</time>
      </trkpt>
      <trkpt lat="48.39458" lon="2.51712">
        <ele>94</ele>
        <time>2007-09-01T11:51:01Z</time>
      </trkpt>
      <trkpt lat="48.3944" lon="2.51728">
        <ele>98</ele>
        <time>2007-09-01T11:51:13Z</time>
      </trkpt>
      <trkpt lat="48.39428" lon="2.5174">
        <ele>101</ele>
        <time>2007-09-01T11:51:19Z</time>
      </trkpt>
      <trkpt lat="48.39423" lon="2.5176">
        <ele>104</ele>
        <time>2007-09-01T11:51:31Z</time>
      </trkpt>
      <trkpt lat="48.3941" lon="2.5177">
        <ele>105</ele>
        <time>2007-09-01T11:51:37Z</time>
      </trkpt>
      <trkpt lat="48.39399" lon="2.51785">
        <ele>107</ele>
        <time>2007-09-01T11:51:47Z</time>
      </trkpt>
      <trkpt lat="48.3941" lon="2.51799">
        <ele>107</ele>
        <time>2007-09-01T11:51:56Z</time>
      </trkpt>
      <trkpt lat="48.39423" lon="2.51809">
        <ele>106</ele>
        <time>2007-09-01T11:52:04Z</time>
      </trkpt>
      <trkpt lat="48.39423" lon="2.5183">
        <ele>106</ele>
        <time>2007-09-01T11:52:16Z</time>
      </trkpt>
      <trkpt lat="48.39416" lon="2.51848">
        <ele>107</ele>
        <time>2007-09-01T11:52:29Z</time>
      </trkpt>
      <trkpt lat="48.39416" lon="2.51869">
        <ele>106</ele>
        <time>2007-09-01T11:52:39Z</time>
      </trkpt>
      <trkpt lat="48.39408" lon="2.51889">
        <ele>107</ele>
        <time>2007-09-01T11:52:49Z</time>
      </trkpt>
      <trkpt lat="48.39401" lon="2.51908">
        <ele>109</ele>
        <time>2007-09-01T11:53:00Z</time>
      </trkpt>
      <trkpt lat="48.3941" lon="2.51926">
        <ele>106</ele>
        <time>2007-09-01T11:53:07Z</time>
      </trkpt>
      <trkpt lat="48.39408" lon="2.51947">
        <ele>106</ele>
        <time>2007-09-01T11:53:16Z</time>
      </trkpt>
      <trkpt lat="48.39402" lon="2.51967">
        <ele>108</ele>
        <time>2007-09-01T11:53:22Z</time>
      </trkpt>
      <trkpt lat="48.3939" lon="2.51982">
        <ele>111</ele>
        <time>2007-09-01T11:53:27Z</time>
      </trkpt>
      <trkpt lat="48.39389" lon="2.52003">
        <ele>111</ele>
        <time>2007-09-01T11:53:36Z</time>
      </trkpt>
      <trkpt lat="48.39392" lon="2.52024">
        <ele>110</ele>
        <time>2007-09-01T11:53:44Z</time>
      </trkpt>
      <trkpt lat="48.39378" lon="2.5204">
        <ele>111</ele>
        <time>2007-09-01T11:53:52Z</time>
      </trkpt>
      <trkpt lat="48.39377" lon="2.52061">
        <ele>111</ele>
        <time>2007-09-01T11:54:03Z</time>
      </trkpt>
      <trkpt lat="48.39387" lon="2.52079">
        <ele>110</ele>
        <time>2007-09-01T11:54:09Z</time>
      </trkpt>
      <trkpt lat="48.39377" lon="2.52097">
        <ele>110</ele>
        <time>2007-09-01T11:54:17Z</time>
      </trkpt>
      <trkpt lat="48.39365" lon="2.52109">
        <ele>109</ele>
        <time>2007-09-01T11:54:24Z</time>
      </trkpt>
      <trkpt lat="48.39357" lon="2.52129">
        <ele>108</ele>
        <time>2007-09-01T11:54:33Z</time>
      </trkpt>
      <trkpt lat="48.39353" lon="2.5215">
        <ele>108</ele>
        <time>2007-09-01T11:54:46Z</time>
      </trkpt>
      <trkpt lat="48.39338" lon="2.52154">
        <ele>107</ele>
        <time>2007-09-01T11:54:49Z</time>
      </trkpt>
      <trkpt lat="48.39324" lon="2.52162">
        <ele>104</ele>
        <time>2007-09-01T11:54:55Z</time>
      </trkpt>
      <trkpt lat="48.39327" lon="2.52183">
        <ele>105</ele>
        <time>2007-09-01T11:55:04Z</time>
      </trkpt>
      <trkpt lat="48.39336" lon="2.52199">
        <ele>109</ele>
        <time>2007-09-01T11:55:12Z</time>
      </trkpt>
      <trkpt lat="48.39329" lon="2.5222">
        <ele>108</ele>
        <time>2007-09-01T11:55:24Z</time>
      </trkpt>
      <trkpt lat="48.39315" lon="2.52228">
        <ele>103</ele>
        <time>2007-09-01T11:55:30Z</time>
      </trkpt>
      <trkpt lat="48.39303" lon="2.52213">
        <ele>98</ele>
        <time>2007-09-01T11:55:50Z</time>
      </trkpt>
      <trkpt lat="48.39288" lon="2.52202">
        <ele>93</ele>
        <time>2007-09-01T11:56:07Z</time>
      </trkpt>
      <trkpt lat="48.39276" lon="2.52214">
        <ele>91</ele>
        <time>2007-09-01T11:56:12Z</time>
      </trkpt>
      <trkpt lat="48.39263" lon="2.52228">
        <ele>90</ele>
        <time>2007-09-01T11:56:29Z</time>
      </trkpt>
      <trkpt lat="48.39251" lon="2.52238">
        <ele>89</ele>
        <time>2007-09-01T11:56:42Z</time>
      </trkpt>
      <trkpt lat="48.39245" lon="2.52258">
        <ele>90</ele>
        <time>2007-09-01T11:57:12Z</time>
      </trkpt>
      <trkpt lat="48.39231" lon="2.52267">
        <ele>93</ele>
        <time>2007-09-01T11:57:25Z</time>
      </trkpt>
      <trkpt lat="48.39245" lon="2.52273">
        <ele>90</ele>
        <time>2007-09-01T11:57:30Z</time>
      </trkpt>
      <trkpt lat="48.39236" lon="2.52291">
        <ele>93</ele>
        <time>2007-09-01T11:57:53Z</time>
      </trkpt>
      <trkpt lat="48.39215" lon="2.52313">
        <ele>101</ele>
        <time>2007-09-01T11:58:10Z</time>
      </trkpt>
      <trkpt lat="48.39224" lon="2.5233">
        <ele>98</ele>
        <time>2007-09-01T11:58:28Z</time>
      </trkpt>
      <trkpt lat="48.3921" lon="2.52339">
        <ele>101</ele>
        <time>2007-09-01T11:58:40Z</time>
      </trkpt>
      <trkpt lat="48.39197" lon="2.52343">
        <ele>105</ele>
        <time>2007-09-01T11:58:49Z</time>
      </trkpt>
      <trkpt lat="48.39185" lon="2.52354">
        <ele>107</ele>
        <time>2007-09-01T11:59:11Z</time>
      </trkpt>
      <trkpt lat="48.39171" lon="2.52363">
        <ele>110</ele>
        <time>2007-09-01T11:59:33Z</time>
      </trkpt>
      <trkpt lat="48.39161" lon="2.52379">
        <ele>113</ele>
        <time>2007-09-01T11:59:55Z</time>
      </trkpt>
      <trkpt lat="48.3915" lon="2.52396">
        <ele>115</ele>
        <time>2007-09-01T12:00:16Z</time>
      </trkpt>
      <trkpt lat="48.3915" lon="2.52423">
        <ele>114</ele>
        <time>2007-09-01T12:00:33Z</time>
      </trkpt>
      <trkpt lat="48.39149" lon="2.52445">
        <ele>114</ele>
        <time>2007-09-01T12:00:42Z</time>
      </trkpt>
      <trkpt lat="48.39153" lon="2.52465">
        <ele>111</ele>
        <time>2007-09-01T12:00:51Z</time>
      </trkpt>
      <trkpt lat="48.3914" lon="2.52477">
        <ele>112</ele>
        <time>2007-09-01T12:01:00Z</time>
      </trkpt>
      <trkpt lat="48.39128" lon="2.5249">
        <ele>113</ele>
        <time>2007-09-01T12:01:08Z</time>
      </trkpt>
      <trkpt lat="48.39119" lon="2.52507">
        <ele>114</ele>
        <time>2007-09-01T12:01:19Z</time>
      </trkpt>
      <trkpt lat="48.39107" lon="2.52522">
        <ele>115</ele>
        <time>2007-09-01T12:01:27Z</time>
      </trkpt>
      <trkpt lat="48.39093" lon="2.52546">
        <ele>116</ele>
        <time>2007-09-01T12:01:38Z</time>
      </trkpt>
      <trkpt lat="48.39083" lon="2.52565">
        <ele>118</ele>
        <time>2007-09-01T12:01:47Z</time>
      </trkpt>
      <trkpt lat="48.39077" lon="2.52586">
        <ele>119</ele>
        <time>2007-09-01T12:01:56Z</time>
      </trkpt>
      <trkpt lat="48.39068" lon="2.52603">
        <ele>121</ele>
        <time>2007-09-01T12:02:08Z</time>
      </trkpt>
      <trkpt lat="48.39054" lon="2.52598">
        <ele>122</ele>
        <time>2007-09-01T12:02:16Z</time>
      </trkpt>
      <trkpt lat="48.39041" lon="2.52597">
        <ele>122</ele>
        <time>2007-09-01T12:02:22Z</time>
      </trkpt>
      <trkpt lat="48.39026" lon="2.52606">
        <ele>122</ele>
        <time>2007-09-01T12:02:30Z</time>
      </trkpt>
      <trkpt lat="48.3902" lon="2.52625">
        <ele>122</ele>
        <time>2007-09-01T12:02:40Z</time>
      </trkpt>
      <trkpt lat="48.39026" lon="2.52646">
        <ele>122</ele>
        <time>2007-09-01T12:02:47Z</time>
      </trkpt>
      <trkpt lat="48.3903" lon="2.52666">
        <ele>121</ele>
        <time>2007-09-01T12:02:54Z</time>
      </trkpt>
      <trkpt lat="48.39032" lon="2.5269">
        <ele>119</ele>
        <time>2007-09-01T12:03:03Z</time>
      </trkpt>
      <trkpt lat="48.39029" lon="2.52711">
        <ele>117</ele>
        <time>2007-09-01T12:03:15Z</time>
      </trkpt>
      <trkpt lat="48.39036" lon="2.52729">
        <ele>116</ele>
        <time>2007-09-01T12:03:25Z</time>
      </trkpt>
      <trkpt lat="48.39042" lon="2.52748">
        <ele>115</ele>
        <time>2007-09-01T12:03:34Z</time>
      </trkpt>
      <trkpt lat="48.39041" lon="2.52769">
        <ele>112</ele>
        <time>2007-09-01T12:03:44Z</time>
      </trkpt>
      <trkpt lat="48.39044" lon="2.52792">
        <ele>111</ele>
        <time>2007-09-01T12:03:52Z</time>
      </trkpt>
      <trkpt lat="48.39041" lon="2.52816">
        <ele>109</ele>
        <time>2007-09-01T12:04:01Z</time>
      </trkpt>
      <trkpt lat="48.39033" lon="2.52834">
        <ele>106</ele>
        <time>2007-09-01T12:04:09Z</time>
      </trkpt>
      <trkpt lat="48.39024" lon="2.5285">
        <ele>101</ele>
        <time>2007-09-01T12:04:19Z</time>
      </trkpt>
      <trkpt lat="48.39015" lon="2.52867">
        <ele>98</ele>
        <time>2007-09-01T12:04:24Z</time>
      </trkpt>
      <trkpt lat="48.39003" lon="2.52879">
        <ele>96</ele>
        <time>2007-09-01T12:04:32Z</time>
      </trkpt>
      <trkpt lat="48.3899" lon="2.52891">
        <ele>93</ele>
        <time>2007-09-01T12:04:41Z</time>
      </trkpt>
      <trkpt lat="48.38973" lon="2.52897">
        <ele>88</ele>
        <time>2007-09-01T12:04:58Z</time>
      </trkpt>
      <trkpt lat="48.3896" lon="2.52898">
        <ele>89</ele>
        <time>2007-09-01T12:05:06Z</time>
      </trkpt>
      <trkpt lat="48.38945" lon="2.52901">
        <ele>89</ele>
        <time>2007-09-01T12:05:15Z</time>
      </trkpt>
      <trkpt lat="48.38931" lon="2.5291">
        <ele>88</ele>
        <time>2007-09-01T12:05:20Z</time>
      </trkpt>
      <trkpt lat="48.38919" lon="2.52925">
        <ele>87</ele>
        <time>2007-09-01T12:05:32Z</time>
      </trkpt>
      <trkpt lat="48.38909" lon="2.52943">
        <ele>88</ele>
        <time>2007-09-01T12:05:39Z</time>
      </trkpt>
      <trkpt lat="48.38897" lon="2.52957">
        <ele>90</ele>
        <time>2007-09-01T12:06:03Z</time>
      </trkpt>
      <trkpt lat="48.38883" lon="2.52966">
        <ele>93</ele>
        <time>2007-09-01T12:06:28Z</time>
      </trkpt>
      <trkpt lat="48.3887" lon="2.52973">
        <ele>96</ele>
        <time>2007-09-01T12:06:59Z</time>
      </trkpt>
      <trkpt lat="48.38861" lon="2.5299">
        <ele>97</ele>
        <time>2007-09-01T12:07:39Z</time>
      </trkpt>
      <trkpt lat="48.38874" lon="2.53003">
        <ele>92</ele>
        <time>2007-09-01T12:07:50Z</time>
      </trkpt>
      <trkpt lat="48.38886" lon="2.53014">
        <ele>88</ele>
        <time>2007-09-01T12:07:59Z</time>
      </trkpt>
      <trkpt lat="48.38897" lon="2.5303">
        <ele>86</ele>
        <time>2007-09-01T12:08:18Z</time>
      </trkpt>
      <trkpt lat="48.38904" lon="2.53051">
        <ele>84</ele>
        <time>2007-09-01T12:08:37Z</time>
      </trkpt>
      <trkpt lat="48.38918" lon="2.53063">
        <ele>87</ele>
        <time>2007-09-01T12:08:49Z</time>
      </trkpt>
      <trkpt lat="48.38933" lon="2.53069">
        <ele>90</ele>
        <time>2007-09-01T12:08:55Z</time>
      </trkpt>
      <trkpt lat="48.3894" lon="2.5309">
        <ele>96</ele>
        <time>2007-09-01T12:09:03Z</time>
      </trkpt>
      <trkpt lat="48.38951" lon="2.53105">
        <ele>102</ele>
        <time>2007-09-01T12:09:10Z</time>
      </trkpt>
      <trkpt lat="48.38946" lon="2.53125">
        <ele>107</ele>
        <time>2007-09-01T12:09:28Z</time>
      </trkpt>
      <trkpt lat="48.38942" lon="2.53144">
        <ele>106</ele>
        <time>2007-09-01T12:10:21Z</time>
      </trkpt>
      <trkpt lat="48.38943" lon="2.53165">
        <ele>106</ele>
        <time>2007-09-01T12:11:00Z</time>
      </trkpt>
      <trkpt lat="48.38948" lon="2.53188">
        <ele>107</ele>
        <time>2007-09-01T12:11:30Z</time>
      </trkpt>
      <trkpt lat="48.3896" lon="2.53209">
        <ele>106</ele>
        <time>2007-09-01T12:11:47Z</time>
      </trkpt>
      <trkpt lat="48.3897" lon="2.53222">
        <ele>107</ele>
        <time>2007-09-01T12:11:56Z</time>
      </trkpt>
      <trkpt lat="48.38978" lon="2.5324">
        <ele>107</ele>
        <time>2007-09-01T12:12:05Z</time>
      </trkpt>
      <trkpt lat="48.38984" lon="2.5326">
        <ele>108</ele>
        <time>2007-09-01T12:12:24Z</time>
      </trkpt>
      <trkpt lat="48.38976" lon="2.53281">
        <ele>108</ele>
        <time>2007-09-01T12:12:41Z</time>
      </trkpt>
      <trkpt lat="48.3899" lon="2.53276">
        <ele>110</ele>
        <time>2007-09-01T12:12:54Z</time>
      </trkpt>
      <trkpt lat="48.39003" lon="2.53273">
        <ele>113</ele>
        <time>2007-09-01T12:13:21Z</time>
      </trkpt>
      <trkpt lat="48.39008" lon="2.53293">
        <ele>115</ele>
        <time>2007-09-01T12:13:50Z</time>
      </trkpt>
      <trkpt lat="48.39021" lon="2.53299">
        <ele>118</ele>
        <time>2007-09-01T12:14:13Z</time>
      </trkpt>
      <trkpt lat="48.39023" lon="2.5332">
        <ele>119</ele>
        <time>2007-09-01T12:14:49Z</time>
      </trkpt>
      <trkpt lat="48.39024" lon="2.53341">
        <ele>120</ele>
        <time>2007-09-01T12:15:10Z</time>
      </trkpt>
      <trkpt lat="48.39024" lon="2.53366">
        <ele>119</ele>
        <time>2007-09-01T12:15:27Z</time>
      </trkpt>
      <trkpt lat="48.39024" lon="2.53387">
        <ele>119</ele>
        <time>2007-09-01T12:15:36Z</time>
      </trkpt>
      <trkpt lat="48.39029" lon="2.53407">
        <ele>119</ele>
        <time>2007-09-01T12:15:46Z</time>
      </trkpt>
      <trkpt lat="48.39038" lon="2.53423">
        <ele>119</ele>
        <time>2007-09-01T12:15:58Z</time>
      </trkpt>
      <trkpt lat="48.39045" lon="2.53441">
        <ele>120</ele>
        <time>2007-09-01T12:16:07Z</time>
      </trkpt>
      <trkpt lat="48.39047" lon="2.53462">
        <ele>120</ele>
        <time>2007-09-01T12:16:17Z</time>
      </trkpt>
      <trkpt lat="48.39038" lon="2.53479">
        <ele>119</ele>
        <time>2007-09-01T12:16:26Z</time>
      </trkpt>
      <trkpt lat="48.3903" lon="2.53497">
        <ele>120</ele>
        <time>2007-09-01T12:16:38Z</time>
      </trkpt>
      <trkpt lat="48.39023" lon="2.53516">
        <ele>120</ele>
        <time>2007-09-01T12:16:51Z</time>
      </trkpt>
      <trkpt lat="48.39018" lon="2.53537">
        <ele>121</ele>
        <time>2007-09-01T12:17:09Z</time>
      </trkpt>
      <trkpt lat="48.39005" lon="2.53537">
        <ele>121</ele>
        <time>2007-09-01T12:17:17Z</time>
      </trkpt>
      <trkpt lat="48.3899" lon="2.53543">
        <ele>120</ele>
        <time>2007-09-01T12:17:34Z</time>
      </trkpt>
      <trkpt lat="48.38981" lon="2.5356">
        <ele>121</ele>
        <time>2007-09-01T12:18:08Z</time>
      </trkpt>
      <trkpt lat="48.38972" lon="2.53576">
        <ele>121</ele>
        <time>2007-09-01T12:18:21Z</time>
      </trkpt>
      <trkpt lat="48.38961" lon="2.5359">
        <ele>122</ele>
        <time>2007-09-01T12:18:34Z</time>
      </trkpt>
      <trkpt lat="48.38948" lon="2.53599">
        <ele>122</ele>
        <time>2007-09-01T12:18:44Z</time>
      </trkpt>
      <trkpt lat="48.38936" lon="2.53609">
        <ele>122</ele>
        <time>2007-09-01T12:18:57Z</time>
      </trkpt>
      <trkpt lat="48.38922" lon="2.53617">
        <ele>122</ele>
        <time>2007-09-01T12:19:14Z</time>
      </trkpt>
      <trkpt lat="48.38909" lon="2.5363">
        <ele>122</ele>
        <time>2007-09-01T12:19:27Z</time>
      </trkpt>
      <trkpt lat="48.38895" lon="2.53632">
        <ele>121</ele>
        <time>2007-09-01T12:19:33Z</time>
      </trkpt>
      <trkpt lat="48.38882" lon="2.53627">
        <ele>121</ele>
        <time>2007-09-01T12:19:51Z</time>
      </trkpt>
      <trkpt lat="48.3887" lon="2.53639">
        <ele>121</ele>
        <time>2007-09-01T12:20:08Z</time>
      </trkpt>
      <trkpt lat="48.38859" lon="2.53654">
        <ele>122</ele>
        <time>2007-09-01T12:20:19Z</time>
      </trkpt>
      <trkpt lat="48.38844" lon="2.53662">
        <ele>122</ele>
        <time>2007-09-01T12:20:28Z</time>
      </trkpt>
      <trkpt lat="48.38831" lon="2.53656">
        <ele>121</ele>
        <time>2007-09-01T12:20:37Z</time>
      </trkpt>
      <trkpt lat="48.38822" lon="2.53639">
        <ele>120</ele>
        <time>2007-09-01T12:20:46Z</time>
      </trkpt>
      <trkpt lat="48.38807" lon="2.53632">
        <ele>119</ele>
        <time>2007-09-01T12:20:53Z</time>
      </trkpt>
      <trkpt lat="48.38795" lon="2.53618">
        <ele>118</ele>
        <time>2007-09-01T12:21:13Z</time>
      </trkpt>
      <trkpt lat="48.38783" lon="2.53629">
        <ele>115</ele>
        <time>2007-09-01T12:21:37Z</time>
      </trkpt>
      <trkpt lat="48.38769" lon="2.53635">
        <ele>111</ele>
        <time>2007-09-01T12:21:49Z</time>
      </trkpt>
      <trkpt lat="48.38756" lon="2.53635">
        <ele>107</ele>
        <time>2007-09-01T12:21:57Z</time>
      </trkpt>
      <trkpt lat="48.38742" lon="2.53644">
        <ele>102</ele>
        <time>2007-09-01T12:22:07Z</time>
      </trkpt>
      <trkpt lat="48.38729" lon="2.53641">
        <ele>98</ele>
        <time>2007-09-01T12:22:25Z</time>
      </trkpt>
      <trkpt lat="48.38715" lon="2.53638">
        <ele>95</ele>
        <time>2007-09-01T12:22:32Z</time>
      </trkpt>
      <trkpt lat="48.38702" lon="2.53642">
        <ele>91</ele>
        <time>2007-09-01T12:22:44Z</time>
      </trkpt>
      <trkpt lat="48.38699" lon="2.53665">
        <ele>92</ele>
        <time>2007-09-01T12:23:01Z</time>
      </trkpt>
      <trkpt lat="48.38688" lon="2.5368">
        <ele>95</ele>
        <time>2007-09-01T12:23:22Z</time>
      </trkpt>
      <trkpt lat="48.38675" lon="2.53677">
        <ele>97</ele>
        <time>2007-09-01T12:23:41Z</time>
      </trkpt>
      <trkpt lat="48.3867" lon="2.53696">
        <ele>98</ele>
        <time>2007-09-01T12:24:00Z</time>
      </trkpt>
      <trkpt lat="48.38664" lon="2.53716">
        <ele>100</ele>
        <time>2007-09-01T12:24:11Z</time>
      </trkpt>
      <trkpt lat="48.38651" lon="2.53728">
        <ele>103</ele>
        <time>2007-09-01T12:24:28Z</time>
      </trkpt>
      <trkpt lat="48.38637" lon="2.5374">
        <ele>106</ele>
        <time>2007-09-01T12:24:45Z</time>
      </trkpt>
      <trkpt lat="48.38627" lon="2.53753">
        <ele>108</ele>
        <time>2007-09-01T12:25:11Z</time>
      </trkpt>
      <trkpt lat="48.38613" lon="2.53761">
        <ele>109</ele>
        <time>2007-09-01T12:25:19Z</time>
      </trkpt>
      <trkpt lat="48.386" lon="2.53771">
        <ele>110</ele>
        <time>2007-09-01T12:25:32Z</time>
      </trkpt>
      <trkpt lat="48.38588" lon="2.53785">
        <ele>111</ele>
        <time>2007-09-01T12:25:49Z</time>
      </trkpt>
      <trkpt lat="48.38579" lon="2.53801">
        <ele>112</ele>
        <time>2007-09-01T12:26:02Z</time>
      </trkpt>
      <trkpt lat="48.38565" lon="2.53812">
        <ele>113</ele>
        <time>2007-09-01T12:26:13Z</time>
      </trkpt>
      <trkpt lat="48.38555" lon="2.53825">
        <ele>114</ele>
        <time>2007-09-01T12:26:24Z</time>
      </trkpt>
      <trkpt lat="48.38541" lon="2.53831">
        <ele>115</ele>
        <time>2007-09-01T12:26:35Z</time>
      </trkpt>
      <trkpt lat="48.38528" lon="2.5383">
        <ele>117</ele>
        <time>2007-09-01T12:26:43Z</time>
      </trkpt>
      <trkpt lat="48.38511" lon="2.5383">
        <ele>118</ele>
        <time>2007-09-01T12:26:50Z</time>
      </trkpt>
      <trkpt lat="48.38498" lon="2.53827">
        <ele>118</ele>
        <time>2007-09-01T12:27:14Z</time>
      </trkpt>
      <trkpt lat="48.38487" lon="2.53843">
        <ele>118</ele>
        <time>2007-09-01T12:27:32Z</time>
      </trkpt>
      <trkpt lat="48.38478" lon="2.5386">
        <ele>118</ele>
        <time>2007-09-01T12:27:54Z</time>
      </trkpt>
      <trkpt lat="48.38465" lon="2.53872">
        <ele>116</ele>
        <time>2007-09-01T12:28:05Z</time>
      </trkpt>
      <trkpt lat="48.38465" lon="2.53893">
        <ele>116</ele>
        <time>2007-09-01T12:28:22Z</time>
      </trkpt>
      <trkpt lat="48.38472" lon="2.53911">
        <ele>118</ele>
        <time>2007-09-01T12:28:52Z</time>
      </trkpt>
      <trkpt lat="48.38471" lon="2.53932">
        <ele>118</ele>
        <time>2007-09-01T12:29:25Z</time>
      </trkpt>
      <trkpt lat="48.38466" lon="2.53951">
        <ele>118</ele>
        <time>2007-09-01T12:30:04Z</time>
      </trkpt>
      <trkpt lat="48.38462" lon="2.53971">
        <ele>118</ele>
        <time>2007-09-01T12:30:29Z</time>
      </trkpt>
      <trkpt lat="48.3846" lon="2.53996">
        <ele>119</ele>
        <time>2007-09-01T12:30:46Z</time>
      </trkpt>
      <trkpt lat="48.38448" lon="2.54008">
        <ele>118</ele>
        <time>2007-09-01T12:30:57Z</time>
      </trkpt>
      <trkpt lat="48.38456" lon="2.54034">
        <ele>117</ele>
        <time>2007-09-01T12:31:14Z</time>
      </trkpt>
      <trkpt lat="48.38462" lon="2.54053">
        <ele>116</ele>
        <time>2007-09-01T12:31:25Z</time>
      </trkpt>
      <trkpt lat="48.38457" lon="2.54073">
        <ele>115</ele>
        <time>2007-09-01T12:31:35Z</time>
      </trkpt>
      <trkpt lat="48.38456" lon="2.54094">
        <ele>114</ele>
        <time>2007-09-01T12:31:48Z</time>
      </trkpt>
      <trkpt lat="48.38451" lon="2.54113">
        <ele>112</ele>
        <time>2007-09-01T12:32:05Z</time>
      </trkpt>
      <trkpt lat="48.38456" lon="2.54133">
        <ele>111</ele>
        <time>2007-09-01T12:32:15Z</time>
      </trkpt>
      <trkpt lat="48.38447" lon="2.54155">
        <ele>110</ele>
        <time>2007-09-01T12:32:32Z</time>
      </trkpt>
      <trkpt lat="48.38435" lon="2.54166">
        <ele>109</ele>
        <time>2007-09-01T12:32:50Z</time>
      </trkpt>
      <trkpt lat="48.38424" lon="2.54184">
        <ele>107</ele>
        <time>2007-09-01T12:33:01Z</time>
      </trkpt>
      <trkpt lat="48.38411" lon="2.54197">
        <ele>104</ele>
        <time>2007-09-01T12:33:07Z</time>
      </trkpt>
      <trkpt lat="48.38396" lon="2.54208">
        <ele>100</ele>
        <time>2007-09-01T12:33:12Z</time>
      </trkpt>
      <trkpt lat="48.384" lon="2.54229">
        <ele>103</ele>
        <time>2007-09-01T12:33:21Z</time>
      </trkpt>
      <trkpt lat="48.38405" lon="2.54248">
        <ele>105</ele>
        <time>2007-09-01T12:33:44Z</time>
      </trkpt>
      <trkpt lat="48.38396" lon="2.54271">
        <ele>105</ele>
        <time>2007-09-01T12:34:01Z</time>
      </trkpt>
      <trkpt lat="48.38382" lon="2.54278">
        <ele>104</ele>
        <time>2007-09-01T12:34:11Z</time>
      </trkpt>
      <trkpt lat="48.3837" lon="2.54289">
        <ele>108</ele>
        <time>2007-09-01T12:34:49Z</time>
      </trkpt>
      <trkpt lat="48.38369" lon="2.5431">
        <ele>110</ele>
        <time>2007-09-01T12:35:10Z</time>
      </trkpt>
      <trkpt lat="48.38357" lon="2.54326">
        <ele>113</ele>
        <time>2007-09-01T12:35:27Z</time>
      </trkpt>
      <trkpt lat="48.38354" lon="2.54347">
        <ele>114</ele>
        <time>2007-09-01T12:35:40Z</time>
      </trkpt>
      <trkpt lat="48.38345" lon="2.54365">
        <ele>115</ele>
        <time>2007-09-01T12:35:51Z</time>
      </trkpt>
      <trkpt lat="48.38337" lon="2.54383">
        <ele>114</ele>
        <time>2007-09-01T12:36:08Z</time>
      </trkpt>
      <trkpt lat="48.38327" lon="2.544">
        <ele>112</ele>
        <time>2007-09-01T12:36:25Z</time>
      </trkpt>
      <trkpt lat="48.38318" lon="2.54418">
        <ele>110</ele>
        <time>2007-09-01T12:36:42Z</time>
      </trkpt>
      <trkpt lat="48.38313" lon="2.54439">
        <ele>109</ele>
        <time>2007-09-01T12:36:59Z</time>
      </trkpt>
      <trkpt lat="48.38313" lon="2.5446">
        <ele>109</ele>
        <time>2007-09-01T12:37:16Z</time>
      </trkpt>
      <trkpt lat="48.38315" lon="2.54481">
        <ele>110</ele>
        <time>2007-09-01T12:37:29Z</time>
      </trkpt>
      <trkpt lat="48.38316" lon="2.54503">
        <ele>112</ele>
        <time>2007-09-01T12:37:42Z</time>
      </trkpt>
      <trkpt lat="48.38309" lon="2.54521">
        <ele>113</ele>
        <time>2007-09-01T12:38:02Z</time>
      </trkpt>
      <trkpt lat="48.38297" lon="2.54533">
        <ele>114</ele>
        <time>2007-09-01T12:38:25Z</time>
      </trkpt>
      <trkpt lat="48.383" lon="2.54554">
        <ele>115</ele>
        <time>2007-09-01T12:38:48Z</time>
      </trkpt>
      <trkpt lat="48.38286" lon="2.54559">
        <ele>115</ele>
        <time>2007-09-01T12:38:56Z</time>
      </trkpt>
      <trkpt lat="48.38276" lon="2.54572">
        <ele>115</ele>
        <time>2007-09-01T12:39:04Z</time>
      </trkpt>
      <trkpt lat="48.38262" lon="2.54572">
        <ele>115</ele>
        <time>2007-09-01T12:39:11Z</time>
      </trkpt>
      <trkpt lat="48.38249" lon="2.54575">
        <ele>115</ele>
        <time>2007-09-01T12:39:20Z</time>
      </trkpt>
      <trkpt lat="48.38231" lon="2.54577">
        <ele>115</ele>
        <time>2007-09-01T12:39:37Z</time>
      </trkpt>
      <trkpt lat="48.38217" lon="2.54575">
        <ele>115</ele>
        <time>2007-09-01T12:39:47Z</time>
      </trkpt>
      <trkpt lat="48.38202" lon="2.54575">
        <ele>114</ele>
        <time>2007-09-01T12:40:04Z</time>
      </trkpt>
      <trkpt lat="48.38196" lon="2.54595">
        <ele>114</ele>
        <time>2007-09-01T12:40:38Z</time>
      </trkpt>
      <trkpt lat="48.38187" lon="2.54611">
        <ele>114</ele>
        <time>2007-09-01T12:40:50Z</time>
      </trkpt>
      <trkpt lat="48.38177" lon="2.54638">
        <ele>111</ele>
        <time>2007-09-01T12:41:08Z</time>
      </trkpt>
      <trkpt lat="48.38171" lon="2.54658">
        <ele>108</ele>
        <time>2007-09-01T12:41:19Z</time>
      </trkpt>
      <trkpt lat="48.38159" lon="2.54668">
        <ele>107</ele>
        <time>2007-09-01T12:41:40Z</time>
      </trkpt>
      <trkpt lat="48.38154" lon="2.54691">
        <ele>106</ele>
        <time>2007-09-01T12:41:57Z</time>
      </trkpt>
      <trkpt lat="48.38141" lon="2.54694">
        <ele>106</ele>
        <time>2007-09-01T12:42:05Z</time>
      </trkpt>
      <trkpt lat="48.38129" lon="2.54704">
        <ele>106</ele>
        <time>2007-09-01T12:42:27Z</time>
      </trkpt>
      <trkpt lat="48.38114" lon="2.54712">
        <ele>106</ele>
        <time>2007-09-01T12:42:44Z</time>
      </trkpt>
      <trkpt lat="48.381" lon="2.54715">
        <ele>108</ele>
        <time>2007-09-01T12:43:03Z</time>
      </trkpt>
      <trkpt lat="48.38085" lon="2.54707">
        <ele>110</ele>
        <time>2007-09-01T12:43:20Z</time>
      </trkpt>
      <trkpt lat="48.38073" lon="2.54697">
        <ele>113</ele>
        <time>2007-09-01T12:43:31Z</time>
      </trkpt>
      <trkpt lat="48.38064" lon="2.54677">
        <ele>115</ele>
        <time>2007-09-01T12:43:48Z</time>
      </trkpt>
      <trkpt lat="48.38063" lon="2.54653">
        <ele>115</ele>
        <time>2007-09-01T12:44:05Z</time>
      </trkpt>
      <trkpt lat="48.38049" lon="2.54646">
        <ele>113</ele>
        <time>2007-09-01T12:44:25Z</time>
      </trkpt>
      <trkpt lat="48.38036" lon="2.54641">
        <ele>111</ele>
        <time>2007-09-01T12:44:37Z</time>
      </trkpt>
      <trkpt lat="48.38021" lon="2.54641">
        <ele>108</ele>
        <time>2007-09-01T12:44:46Z</time>
      </trkpt>
      <trkpt lat="48.38007" lon="2.54644">
        <ele>105</ele>
        <time>2007-09-01T12:44:54Z</time>
      </trkpt>
      <trkpt lat="48.37994" lon="2.54646">
        <ele>101</ele>
        <time>2007-09-01T12:45:29Z</time>
      </trkpt>
      <trkpt lat="48.37979" lon="2.54646">
        <ele>98</ele>
        <time>2007-09-01T12:45:47Z</time>
      </trkpt>
      <trkpt lat="48.37965" lon="2.54643">
        <ele>102</ele>
        <time>2007-09-01T12:46:12Z</time>
      </trkpt>
      <trkpt lat="48.37952" lon="2.54638">
        <ele>106</ele>
        <time>2007-09-01T12:46:36Z</time>
      </trkpt>
      <trkpt lat="48.3794" lon="2.54628">
        <ele>110</ele>
        <time>2007-09-01T12:46:47Z</time>
      </trkpt>
      <trkpt lat="48.37929" lon="2.5461">
        <ele>112</ele>
        <time>2007-09-01T12:47:04Z</time>
      </trkpt>
      <trkpt lat="48.37919" lon="2.54596">
        <ele>113</ele>
        <time>2007-09-01T12:47:16Z</time>
      </trkpt>
      <trkpt lat="48.3791" lon="2.5458">
        <ele>113</ele>
        <time>2007-09-01T12:47:28Z</time>
      </trkpt>
      <trkpt lat="48.37896" lon="2.54575">
        <ele>115</ele>
        <time>2007-09-01T12:47:49Z</time>
      </trkpt>
      <trkpt lat="48.37884" lon="2.54587">
        <ele>115</ele>
        <time>2007-09-01T12:48:06Z</time>
      </trkpt>
      <trkpt lat="48.37874" lon="2.54602">
        <ele>115</ele>
        <time>2007-09-01T12:48:15Z</time>
      </trkpt>
      <trkpt lat="48.37862" lon="2.54613">
        <ele>114</ele>
        <time>2007-09-01T12:48:27Z</time>
      </trkpt>
      <trkpt lat="48.37848" lon="2.54623">
        <ele>113</ele>
        <time>2007-09-01T12:48:44Z</time>
      </trkpt>
      <trkpt lat="48.37835" lon="2.54634">
        <ele>111</ele>
        <time>2007-09-01T12:49:14Z</time>
      </trkpt>
      <trkpt lat="48.37821" lon="2.54632">
        <ele>111</ele>
        <time>2007-09-01T12:49:23Z</time>
      </trkpt>
      <trkpt lat="48.37806" lon="2.54637">
        <ele>111</ele>
        <time>2007-09-01T12:49:36Z</time>
      </trkpt>
      <trkpt lat="48.37791" lon="2.54634">
        <ele>111</ele>
        <time>2007-09-01T12:49:46Z</time>
      </trkpt>
      <trkpt lat="48.37778" lon="2.54631">
        <ele>110</ele>
        <time>2007-09-01T12:49:55Z</time>
      </trkpt>
      <trkpt lat="48.37764" lon="2.54626">
        <ele>111</ele>
        <time>2007-09-01T12:50:08Z</time>
      </trkpt>
      <trkpt lat="48.37746" lon="2.54626">
        <ele>109</ele>
        <time>2007-09-01T12:50:25Z</time>
      </trkpt>
      <trkpt lat="48.37733" lon="2.54625">
        <ele>108</ele>
        <time>2007-09-01T12:50:38Z</time>
      </trkpt>
      <trkpt lat="48.37719" lon="2.54623">
        <ele>106</ele>
        <time>2007-09-01T12:50:50Z</time>
      </trkpt>
      <trkpt lat="48.37706" lon="2.54625">
        <ele>104</ele>
        <time>2007-09-01T12:50:58Z</time>
      </trkpt>
      <trkpt lat="48.37692" lon="2.54635">
        <ele>100</ele>
        <time>2007-09-01T12:51:11Z</time>
      </trkpt>
      <trkpt lat="48.37679" lon="2.54641">
        <ele>97</ele>
        <time>2007-09-01T12:51:22Z</time>
      </trkpt>
      <trkpt lat="48.37665" lon="2.54649">
        <ele>94</ele>
        <time>2007-09-01T12:51:29Z</time>
      </trkpt>
      <trkpt lat="48.37655" lon="2.54662">
        <ele>95</ele>
        <time>2007-09-01T12:51:37Z</time>
      </trkpt>
      <trkpt lat="48.3765" lon="2.54682">
        <ele>97</ele>
        <time>2007-09-01T12:51:48Z</time>
      </trkpt>
      <trkpt lat="48.37638" lon="2.54694">
        <ele>99</ele>
        <time>2007-09-01T12:52:06Z</time>
      </trkpt>
      <trkpt lat="48.37625" lon="2.54692">
        <ele>100</ele>
        <time>2007-09-01T12:52:23Z</time>
      </trkpt>
      <trkpt lat="48.37619" lon="2.54673">
        <ele>97</ele>
        <time>2007-09-01T12:52:40Z</time>
      </trkpt>
      <trkpt lat="48.37619" lon="2.54652">
        <ele>96</ele>
        <time>2007-09-01T12:52:51Z</time>
      </trkpt>
      <trkpt lat="48.37617" lon="2.54623">
        <ele>95</ele>
        <time>2007-09-01T12:53:08Z</time>
      </trkpt>
      <trkpt lat="48.37611" lon="2.54598">
        <ele>95</ele>
        <time>2007-09-01T12:53:25Z</time>
      </trkpt>
      <trkpt lat="48.37604" lon="2.5458">
        <ele>98</ele>
        <time>2007-09-01T12:53:48Z</time>
      </trkpt>
      <trkpt lat="48.37605" lon="2.54551">
        <ele>100</ele>
        <time>2007-09-01T12:54:06Z</time>
      </trkpt>
      <trkpt lat="48.37605" lon="2.5453">
        <ele>101</ele>
        <time>2007-09-01T12:54:28Z</time>
      </trkpt>
      <trkpt lat="48.37608" lon="2.54509">
        <ele>99</ele>
        <time>2007-09-01T12:54:39Z</time>
      </trkpt>
      <trkpt lat="48.3761" lon="2.54487">
        <ele>98</ele>
        <time>2007-09-01T12:54:51Z</time>
      </trkpt>
      <trkpt lat="48.37604" lon="2.54466">
        <ele>99</ele>
        <time>2007-09-01T12:55:01Z</time>
      </trkpt>
      <trkpt lat="48.37602" lon="2.54445">
        <ele>99</ele>
        <time>2007-09-01T12:55:12Z</time>
      </trkpt>
      <trkpt lat="48.37598" lon="2.54425">
        <ele>99</ele>
        <time>2007-09-01T12:55:29Z</time>
      </trkpt>
      <trkpt lat="48.37593" lon="2.54403">
        <ele>99</ele>
        <time>2007-09-01T12:55:46Z</time>
      </trkpt>
      <trkpt lat="48.3759" lon="2.54382">
        <ele>101</ele>
        <time>2007-09-01T12:56:03Z</time>
      </trkpt>
      <trkpt lat="48.37592" lon="2.54361">
        <ele>103</ele>
        <time>2007-09-01T12:56:16Z</time>
      </trkpt>
      <trkpt lat="48.37593" lon="2.5434">
        <ele>104</ele>
        <time>2007-09-01T12:56:26Z</time>
      </trkpt>
      <trkpt lat="48.3759" lon="2.54319">
        <ele>106</ele>
        <time>2007-09-01T12:56:37Z</time>
      </trkpt>
      <trkpt lat="48.37581" lon="2.54302">
        <ele>109</ele>
        <time>2007-09-01T12:56:50Z</time>
      </trkpt>
      <trkpt lat="48.37581" lon="2.5428">
        <ele>109</ele>
        <time>2007-09-01T12:57:01Z</time>
      </trkpt>
      <trkpt lat="48.37575" lon="2.54259">
        <ele>110</ele>
        <time>2007-09-01T12:57:18Z</time>
      </trkpt>
      <trkpt lat="48.37571" lon="2.54239">
        <ele>108</ele>
        <time>2007-09-01T12:57:31Z</time>
      </trkpt>
      <trkpt lat="48.37575" lon="2.5422">
        <ele>107</ele>
        <time>2007-09-01T12:57:40Z</time>
      </trkpt>
      <trkpt lat="48.37581" lon="2.542">
        <ele>104</ele>
        <time>2007-09-01T12:57:50Z</time>
      </trkpt>
      <trkpt lat="48.37581" lon="2.54179">
        <ele>102</ele>
        <time>2007-09-01T12:57:57Z</time>
      </trkpt>
      <trkpt lat="48.37586" lon="2.5416">
        <ele>99</ele>
        <time>2007-09-01T12:58:07Z</time>
      </trkpt>
      <trkpt lat="48.37589" lon="2.54139">
        <ele>96</ele>
        <time>2007-09-01T12:58:18Z</time>
      </trkpt>
      <trkpt lat="48.37584" lon="2.54118">
        <ele>95</ele>
        <time>2007-09-01T12:58:28Z</time>
      </trkpt>
      <trkpt lat="48.37577" lon="2.54098">
        <ele>96</ele>
        <time>2007-09-01T12:58:37Z</time>
      </trkpt>
      <trkpt lat="48.37571" lon="2.54079">
        <ele>94</ele>
        <time>2007-09-01T12:58:46Z</time>
      </trkpt>
      <trkpt lat="48.37566" lon="2.54055">
        <ele>93</ele>
        <time>2007-09-01T12:58:53Z</time>
      </trkpt>
      <trkpt lat="48.37559" lon="2.54035">
        <ele>92</ele>
        <time>2007-09-01T12:59:00Z</time>
      </trkpt>
      <trkpt lat="48.37554" lon="2.54014">
        <ele>92</ele>
        <time>2007-09-01T12:59:06Z</time>
      </trkpt>
      <trkpt lat="48.37544" lon="2.53999">
        <ele>91</ele>
        <time>2007-09-01T12:59:14Z</time>
      </trkpt>
      <trkpt lat="48.3753" lon="2.53999">
        <ele>91</ele>
        <time>2007-09-01T12:59:20Z</time>
      </trkpt>
      <trkpt lat="48.37515" lon="2.54005">
        <ele>89</ele>
        <time>2007-09-01T12:59:30Z</time>
      </trkpt>
      <trkpt lat="48.375" lon="2.53998">
        <ele>87</ele>
        <time>2007-09-01T12:59:41Z</time>
      </trkpt>
      <trkpt lat="48.37487" lon="2.53998">
        <ele>85</ele>
        <time>2007-09-01T12:59:48Z</time>
      </trkpt>
      <trkpt lat="48.37472" lon="2.54005">
        <ele>82</ele>
        <time>2007-09-01T12:59:55Z</time>
      </trkpt>
      <trkpt lat="48.37458" lon="2.54013">
        <ele>80</ele>
        <time>2007-09-01T12:59:59Z</time>
      </trkpt>
      <trkpt lat="48.37446" lon="2.54025">
        <ele>79</ele>
        <time>2007-09-01T13:00:05Z</time>
      </trkpt>
      <trkpt lat="48.37422" lon="2.54046">
        <ele>79</ele>
        <time>2007-09-01T13:00:16Z</time>
      </trkpt>
      <trkpt lat="48.37412" lon="2.54062">
        <ele>79</ele>
        <time>2007-09-01T13:00:22Z</time>
      </trkpt>
      <trkpt lat="48.37404" lon="2.5408">
        <ele>80</ele>
        <time>2007-09-01T13:00:29Z</time>
      </trkpt>
      <trkpt lat="48.37391" lon="2.54091">
        <ele>82</ele>
        <time>2007-09-01T13:00:39Z</time>
      </trkpt>
      <trkpt lat="48.37377" lon="2.54085">
        <ele>83</ele>
        <time>2007-09-01T13:00:56Z</time>
      </trkpt>
      <trkpt lat="48.37359" lon="2.54094">
        <ele>85</ele>
        <time>2007-09-01T13:01:13Z</time>
      </trkpt>
      <trkpt lat="48.37346" lon="2.54095">
        <ele>87</ele>
        <time>2007-09-01T13:01:20Z</time>
      </trkpt>
      <trkpt lat="48.37334" lon="2.54083">
        <ele>87</ele>
        <time>2007-09-01T13:01:33Z</time>
      </trkpt>
      <trkpt lat="48.37319" lon="2.5408">
        <ele>88</ele>
        <time>2007-09-01T13:01:43Z</time>
      </trkpt>
      <trkpt lat="48.37305" lon="2.54076">
        <ele>88</ele>
        <time>2007-09-01T13:01:49Z</time>
      </trkpt>
      <trkpt lat="48.3729" lon="2.54068">
        <ele>89</ele>
        <time>2007-09-01T13:01:58Z</time>
      </trkpt>
      <trkpt lat="48.37277" lon="2.5407">
        <ele>90</ele>
        <time>2007-09-01T13:02:10Z</time>
      </trkpt>
      <trkpt lat="48.37263" lon="2.5407">
        <ele>91</ele>
        <time>2007-09-01T13:02:18Z</time>
      </trkpt>
      <trkpt lat="48.3725" lon="2.5407">
        <ele>91</ele>
        <time>2007-09-01T13:02:30Z</time>
      </trkpt>
      <trkpt lat="48.37236" lon="2.5407">
        <ele>90</ele>
        <time>2007-09-01T13:02:42Z</time>
      </trkpt>
      <trkpt lat="48.37226" lon="2.54055">
        <ele>89</ele>
        <time>2007-09-01T13:02:50Z</time>
      </trkpt>
      <trkpt lat="48.37218" lon="2.54037">
        <ele>88</ele>
        <time>2007-09-01T13:03:00Z</time>
      </trkpt>
      <trkpt lat="48.37214" lon="2.54017">
        <ele>88</ele>
        <time>2007-09-01T13:03:08Z</time>
      </trkpt>
      <trkpt lat="48.37215" lon="2.53995">
        <ele>87</ele>
        <time>2007-09-01T13:03:19Z</time>
      </trkpt>
      <trkpt lat="48.37215" lon="2.53974">
        <ele>86</ele>
        <time>2007-09-01T13:03:29Z</time>
      </trkpt>
      <trkpt lat="48.37203" lon="2.5396">
        <ele>86</ele>
        <time>2007-09-01T13:03:41Z</time>
      </trkpt>
      <trkpt lat="48.3719" lon="2.53953">
        <ele>86</ele>
        <time>2007-09-01T13:03:58Z</time>
      </trkpt>
      <trkpt lat="48.37176" lon="2.5395">
        <ele>87</ele>
        <time>2007-09-01T13:04:06Z</time>
      </trkpt>
      <trkpt lat="48.3716" lon="2.53939">
        <ele>88</ele>
        <time>2007-09-01T13:04:25Z</time>
      </trkpt>
      <trkpt lat="48.37145" lon="2.53933">
        <ele>90</ele>
        <time>2007-09-01T13:04:42Z</time>
      </trkpt>
      <trkpt lat="48.3713" lon="2.5393">
        <ele>92</ele>
        <time>2007-09-01T13:04:51Z</time>
      </trkpt>
      <trkpt lat="48.37124" lon="2.53911">
        <ele>93</ele>
        <time>2007-09-01T13:05:11Z</time>
      </trkpt>
      <trkpt lat="48.37118" lon="2.53891">
        <ele>94</ele>
        <time>2007-09-01T13:05:28Z</time>
      </trkpt>
      <trkpt lat="48.37104" lon="2.5389">
        <ele>95</ele>
        <time>2007-09-01T13:05:58Z</time>
      </trkpt>
      <trkpt lat="48.37091" lon="2.53884">
        <ele>97</ele>
        <time>2007-09-01T13:06:08Z</time>
      </trkpt>
      <trkpt lat="48.3708" lon="2.5387">
        <ele>99</ele>
        <time>2007-09-01T13:06:25Z</time>
      </trkpt>
      <trkpt lat="48.3707" lon="2.53857">
        <ele>100</ele>
        <time>2007-09-01T13:06:38Z</time>
      </trkpt>
      <trkpt lat="48.37056" lon="2.53843">
        <ele>99</ele>
        <time>2007-09-01T13:06:44Z</time>
      </trkpt>
      <trkpt lat="48.37041" lon="2.53839">
        <ele>100</ele>
        <time>2007-09-01T13:06:54Z</time>
      </trkpt>
      <trkpt lat="48.37034" lon="2.53819">
        <ele>99</ele>
        <time>2007-09-01T13:07:01Z</time>
      </trkpt>
      <trkpt lat="48.37032" lon="2.53798">
        <ele>100</ele>
        <time>2007-09-01T13:07:11Z</time>
      </trkpt>
      <trkpt lat="48.37044" lon="2.53788">
        <ele>98</ele>
        <time>2007-09-01T13:07:23Z</time>
      </trkpt>
      <trkpt lat="48.37032" lon="2.53776">
        <ele>100</ele>
        <time>2007-09-01T13:07:35Z</time>
      </trkpt>
      <trkpt lat="48.37028" lon="2.53752">
        <ele>101</ele>
        <time>2007-09-01T13:07:52Z</time>
      </trkpt>
      <trkpt lat="48.37017" lon="2.53738">
        <ele>104</ele>
        <time>2007-09-01T13:08:14Z</time>
      </trkpt>
      <trkpt lat="48.37007" lon="2.53722">
        <ele>107</ele>
        <time>2007-09-01T13:08:27Z</time>
      </trkpt>
      <trkpt lat="48.37013" lon="2.53695">
        <ele>104</ele>
        <time>2007-09-01T13:08:44Z</time>
      </trkpt>
      <trkpt lat="48.37014" lon="2.53672">
        <ele>102</ele>
        <time>2007-09-01T13:08:56Z</time>
      </trkpt>
      <trkpt lat="48.37007" lon="2.53654">
        <ele>102</ele>
        <time>2007-09-01T13:09:06Z</time>
      </trkpt>
      <trkpt lat="48.36993" lon="2.53653">
        <ele>105</ele>
        <time>2007-09-01T13:09:13Z</time>
      </trkpt>
      <trkpt lat="48.36984" lon="2.53635">
        <ele>101</ele>
        <time>2007-09-01T13:09:32Z</time>
      </trkpt>
      <trkpt lat="48.36987" lon="2.53614">
        <ele>95</ele>
        <time>2007-09-01T13:09:45Z</time>
      </trkpt>
      <trkpt lat="48.36974" lon="2.53609">
        <ele>95</ele>
        <time>2007-09-01T13:09:57Z</time>
      </trkpt>
      <trkpt lat="48.3696" lon="2.53611">
        <ele>97</ele>
        <time>2007-09-01T13:10:14Z</time>
      </trkpt>
      <trkpt lat="48.36947" lon="2.53611">
        <ele>98</ele>
        <time>2007-09-01T13:10:31Z</time>
      </trkpt>
      <trkpt lat="48.36933" lon="2.53602">
        <ele>97</ele>
        <time>2007-09-01T13:10:41Z</time>
      </trkpt>
      <trkpt lat="48.36932" lon="2.53581">
        <ele>94</ele>
        <time>2007-09-01T13:10:58Z</time>
      </trkpt>
      <trkpt lat="48.36933" lon="2.5356">
        <ele>91</ele>
        <time>2007-09-01T13:11:20Z</time>
      </trkpt>
      <trkpt lat="48.36929" lon="2.5354">
        <ele>88</ele>
        <time>2007-09-01T13:11:38Z</time>
      </trkpt>
      <trkpt lat="48.36927" lon="2.53519">
        <ele>85</ele>
        <time>2007-09-01T13:11:47Z</time>
      </trkpt>
      <trkpt lat="48.36932" lon="2.535">
        <ele>81</ele>
        <time>2007-09-01T13:11:58Z</time>
      </trkpt>
      <trkpt lat="48.36947" lon="2.53489">
        <ele>78</ele>
        <time>2007-09-01T13:12:10Z</time>
      </trkpt>
      <trkpt lat="48.36962" lon="2.53488">
        <ele>77</ele>
        <time>2007-09-01T13:12:17Z</time>
      </trkpt>
      <trkpt lat="48.36975" lon="2.53489">
        <ele>76</ele>
        <time>2007-09-01T13:12:26Z</time>
      </trkpt>
      <trkpt lat="48.36993" lon="2.53501">
        <ele>75</ele>
        <time>2007-09-01T13:12:43Z</time>
      </trkpt>
      <trkpt lat="48.37007" lon="2.53513">
        <ele>75</ele>
        <time>2007-09-01T13:12:54Z</time>
      </trkpt>
      <trkpt lat="48.3702" lon="2.53516">
        <ele>75</ele>
        <time>2007-09-01T13:13:02Z</time>
      </trkpt>
      <trkpt lat="48.37037" lon="2.53515">
        <ele>74</ele>
        <time>2007-09-01T13:13:11Z</time>
      </trkpt>
      <trkpt lat="48.3705" lon="2.53518">
        <ele>74</ele>
        <time>2007-09-01T13:13:19Z</time>
      </trkpt>
      <trkpt lat="48.37064" lon="2.53516">
        <ele>73</ele>
        <time>2007-09-01T13:13:27Z</time>
      </trkpt>
      <trkpt lat="48.37079" lon="2.53525">
        <ele>73</ele>
        <time>2007-09-01T13:13:32Z</time>
      </trkpt>
      <trkpt lat="48.37092" lon="2.53531">
        <ele>73</ele>
        <time>2007-09-01T13:13:35Z</time>
      </trkpt>
      <trkpt lat="48.37107" lon="2.53527">
        <ele>74</ele>
        <time>2007-09-01T13:13:42Z</time>
      </trkpt>
      <trkpt lat="48.37118" lon="2.53513">
        <ele>74</ele>
        <time>2007-09-01T13:13:51Z</time>
      </trkpt>
      <trkpt lat="48.37118" lon="2.53491">
        <ele>74</ele>
        <time>2007-09-01T13:13:58Z</time>
      </trkpt>
      <trkpt lat="48.37121" lon="2.53468">
        <ele>74</ele>
        <time>2007-09-01T13:14:08Z</time>
      </trkpt>
      <trkpt lat="48.37127" lon="2.53449">
        <ele>74</ele>
        <time>2007-09-01T13:14:15Z</time>
      </trkpt>
      <trkpt lat="48.3713" lon="2.53428">
        <ele>74</ele>
        <time>2007-09-01T13:14:22Z</time>
      </trkpt>
      <trkpt lat="48.3713" lon="2.53407">
        <ele>74</ele>
        <time>2007-09-01T13:14:31Z</time>
      </trkpt>
      <trkpt lat="48.3713" lon="2.53386">
        <ele>74</ele>
        <time>2007-09-01T13:14:42Z</time>
      </trkpt>
      <trkpt lat="48.37125" lon="2.53363">
        <ele>74</ele>
        <time>2007-09-01T13:14:49Z</time>
      </trkpt>
      <trkpt lat="48.37124" lon="2.53341">
        <ele>75</ele>
        <time>2007-09-01T13:14:57Z</time>
      </trkpt>
      <trkpt lat="48.37124" lon="2.5332">
        <ele>75</ele>
        <time>2007-09-01T13:15:04Z</time>
      </trkpt>
      <trkpt lat="48.37116" lon="2.53299">
        <ele>75</ele>
        <time>2007-09-01T13:15:11Z</time>
      </trkpt>
      <trkpt lat="48.3711" lon="2.53278">
        <ele>74</ele>
        <time>2007-09-01T13:15:21Z</time>
      </trkpt>
      <trkpt lat="48.37109" lon="2.53257">
        <ele>74</ele>
        <time>2007-09-01T13:15:32Z</time>
      </trkpt>
      <trkpt lat="48.37098" lon="2.53243">
        <ele>75</ele>
        <time>2007-09-01T13:15:50Z</time>
      </trkpt>
      <trkpt lat="48.37085" lon="2.53231">
        <ele>75</ele>
        <time>2007-09-01T13:15:58Z</time>
      </trkpt>
      <trkpt lat="48.37071" lon="2.53228">
        <ele>75</ele>
        <time>2007-09-01T13:16:04Z</time>
      </trkpt>
      <trkpt lat="48.37062" lon="2.53212">
        <ele>75</ele>
        <time>2007-09-01T13:16:14Z</time>
      </trkpt>
      <trkpt lat="48.3705" lon="2.532">
        <ele>75</ele>
        <time>2007-09-01T13:16:20Z</time>
      </trkpt>
      <trkpt lat="48.37041" lon="2.53182">
        <ele>75</ele>
        <time>2007-09-01T13:16:28Z</time>
      </trkpt>
      <trkpt lat="48.37028" lon="2.53174">
        <ele>75</ele>
        <time>2007-09-01T13:16:36Z</time>
      </trkpt>
      <trkpt lat="48.37013" lon="2.53174">
        <ele>74</ele>
        <time>2007-09-01T13:16:44Z</time>
      </trkpt>
      <trkpt lat="48.36996" lon="2.53173">
        <ele>74</ele>
        <time>2007-09-01T13:16:53Z</time>
      </trkpt>
      <trkpt lat="48.36983" lon="2.53177">
        <ele>74</ele>
        <time>2007-09-01T13:17:05Z</time>
      </trkpt>
      <trkpt lat="48.36996" lon="2.53171">
        <ele>74</ele>
        <time>2007-09-01T13:17:54Z</time>
      </trkpt>
      <trkpt lat="48.3701" lon="2.53173">
        <ele>74</ele>
        <time>2007-09-01T13:18:03Z</time>
      </trkpt>
      <trkpt lat="48.37023" lon="2.53176">
        <ele>75</ele>
        <time>2007-09-01T13:18:11Z</time>
      </trkpt>
      <trkpt lat="48.37019" lon="2.53153">
        <ele>75</ele>
        <time>2007-09-01T13:18:21Z</time>
      </trkpt>
      <trkpt lat="48.37011" lon="2.53132">
        <ele>75</ele>
        <time>2007-09-01T13:18:29Z</time>
      </trkpt>
      <trkpt lat="48.36998" lon="2.53123">
        <ele>75</ele>
        <time>2007-09-01T13:18:37Z</time>
      </trkpt>
      <trkpt lat="48.36986" lon="2.53111">
        <ele>75</ele>
        <time>2007-09-01T13:18:45Z</time>
      </trkpt>
      <trkpt lat="48.36974" lon="2.53098">
        <ele>75</ele>
        <time>2007-09-01T13:18:54Z</time>
      </trkpt>
      <trkpt lat="48.36959" lon="2.53092">
        <ele>74</ele>
        <time>2007-09-01T13:19:03Z</time>
      </trkpt>
      <trkpt lat="48.36966" lon="2.53074">
        <ele>75</ele>
        <time>2007-09-01T13:19:14Z</time>
      </trkpt>
      <trkpt lat="48.36963" lon="2.53053">
        <ele>75</ele>
        <time>2007-09-01T13:19:22Z</time>
      </trkpt>
      <trkpt lat="48.36954" lon="2.53033">
        <ele>75</ele>
        <time>2007-09-01T13:19:34Z</time>
      </trkpt>
      <trkpt lat="48.36948" lon="2.53012">
        <ele>75</ele>
        <time>2007-09-01T13:19:42Z</time>
      </trkpt>
      <trkpt lat="48.36944" lon="2.52993">
        <ele>75</ele>
        <time>2007-09-01T13:19:51Z</time>
      </trkpt>
      <trkpt lat="48.36939" lon="2.52972">
        <ele>75</ele>
        <time>2007-09-01T13:20:01Z</time>
      </trkpt>
      <trkpt lat="48.36935" lon="2.52952">
        <ele>75</ele>
        <time>2007-09-01T13:20:09Z</time>
      </trkpt>
      <trkpt lat="48.36923" lon="2.52942">
        <ele>74</ele>
        <time>2007-09-01T13:20:18Z</time>
      </trkpt>
      <trkpt lat="48.36914" lon="2.52925">
        <ele>74</ele>
        <time>2007-09-01T13:20:25Z</time>
      </trkpt>
      <trkpt lat="48.36905" lon="2.52907">
        <ele>74</ele>
        <time>2007-09-01T13:20:33Z</time>
      </trkpt>
      <trkpt lat="48.369" lon="2.52886">
        <ele>74</ele>
        <time>2007-09-01T13:20:41Z</time>
      </trkpt>
      <trkpt lat="48.3689" lon="2.52868">
        <ele>74</ele>
        <time>2007-09-01T13:20:50Z</time>
      </trkpt>
      <trkpt lat="48.36882" lon="2.5285">
        <ele>74</ele>
        <time>2007-09-01T13:20:58Z</time>
      </trkpt>
      <trkpt lat="48.36881" lon="2.52828">
        <ele>74</ele>
        <time>2007-09-01T13:21:07Z</time>
      </trkpt>
      <trkpt lat="48.36876" lon="2.52805">
        <ele>74</ele>
        <time>2007-09-01T13:21:16Z</time>
      </trkpt>
      <trkpt lat="48.36873" lon="2.52783">
        <ele>74</ele>
        <time>2007-09-01T13:21:25Z</time>
      </trkpt>
      <trkpt lat="48.36873" lon="2.52762">
        <ele>74</ele>
        <time>2007-09-01T13:21:32Z</time>
      </trkpt>
      <trkpt lat="48.36866" lon="2.52742">
        <ele>74</ele>
        <time>2007-09-01T13:21:39Z</time>
      </trkpt>
      <trkpt lat="48.36855" lon="2.52717">
        <ele>75</ele>
        <time>2007-09-01T13:21:49Z</time>
      </trkpt>
      <trkpt lat="48.36852" lon="2.52694">
        <ele>75</ele>
        <time>2007-09-01T13:21:58Z</time>
      </trkpt>
      <trkpt lat="48.36854" lon="2.52673">
        <ele>75</ele>
        <time>2007-09-01T13:22:05Z</time>
      </trkpt>
      <trkpt lat="48.36855" lon="2.52651">
        <ele>75</ele>
        <time>2007-09-01T13:22:14Z</time>
      </trkpt>
      <trkpt lat="48.36849" lon="2.5263">
        <ele>75</ele>
        <time>2007-09-01T13:22:23Z</time>
      </trkpt>
      <trkpt lat="48.3684" lon="2.52613">
        <ele>74</ele>
        <time>2007-09-01T13:22:33Z</time>
      </trkpt>
      <trkpt lat="48.36831" lon="2.52595">
        <ele>74</ele>
        <time>2007-09-01T13:22:41Z</time>
      </trkpt>
      <trkpt lat="48.36818" lon="2.52585">
        <ele>73</ele>
        <time>2007-09-01T13:22:50Z</time>
      </trkpt>
      <trkpt lat="48.36807" lon="2.52571">
        <ele>73</ele>
        <time>2007-09-01T13:22:58Z</time>
      </trkpt>
      <trkpt lat="48.368" lon="2.52553">
        <ele>73</ele>
        <time>2007-09-01T13:23:06Z</time>
      </trkpt>
      <trkpt lat="48.36788" lon="2.52543">
        <ele>72</ele>
        <time>2007-09-01T13:23:14Z</time>
      </trkpt>
      <trkpt lat="48.36774" lon="2.52535">
        <ele>73</ele>
        <time>2007-09-01T13:23:21Z</time>
      </trkpt>
      <trkpt lat="48.36762" lon="2.52522">
        <ele>73</ele>
        <time>2007-09-01T13:23:30Z</time>
      </trkpt>
      <trkpt lat="48.3675" lon="2.5251">
        <ele>73</ele>
        <time>2007-09-01T13:23:41Z</time>
      </trkpt>
      <trkpt lat="48.3674" lon="2.52489">
        <ele>74</ele>
        <time>2007-09-01T13:23:58Z</time>
      </trkpt>
      <trkpt lat="48.36729" lon="2.52475">
        <ele>75</ele>
        <time>2007-09-01T13:24:09Z</time>
      </trkpt>
      <trkpt lat="48.36713" lon="2.52477">
        <ele>77</ele>
        <time>2007-09-01T13:24:26Z</time>
      </trkpt>
      <trkpt lat="48.36696" lon="2.52466">
        <ele>79</ele>
        <time>2007-09-01T13:24:43Z</time>
      </trkpt>
      <trkpt lat="48.36683" lon="2.52463">
        <ele>81</ele>
        <time>2007-09-01T13:24:55Z</time>
      </trkpt>
      <trkpt lat="48.36678" lon="2.52444">
        <ele>83</ele>
        <time>2007-09-01T13:25:26Z</time>
      </trkpt>
      <trkpt lat="48.36669" lon="2.52426">
        <ele>85</ele>
        <time>2007-09-01T13:25:55Z</time>
      </trkpt>
      <trkpt lat="48.36669" lon="2.52405">
        <ele>87</ele>
        <time>2007-09-01T13:26:22Z</time>
      </trkpt>
      <trkpt lat="48.36659" lon="2.52388">
        <ele>92</ele>
        <time>2007-09-01T13:26:54Z</time>
      </trkpt>
      <trkpt lat="48.36647" lon="2.52375">
        <ele>97</ele>
        <time>2007-09-01T13:27:14Z</time>
      </trkpt>
      <trkpt lat="48.36633" lon="2.52367">
        <ele>100</ele>
        <time>2007-09-01T13:27:33Z</time>
      </trkpt>
      <trkpt lat="48.36633" lon="2.52346">
        <ele>98</ele>
        <time>2007-09-01T13:28:01Z</time>
      </trkpt>
      <trkpt lat="48.36647" lon="2.52343">
        <ele>94</ele>
        <time>2007-09-01T13:28:14Z</time>
      </trkpt>
      <trkpt lat="48.36662" lon="2.52337">
        <ele>89</ele>
        <time>2007-09-01T13:28:31Z</time>
      </trkpt>
      <trkpt lat="48.36662" lon="2.52313">
        <ele>87</ele>
        <time>2007-09-01T13:28:48Z</time>
      </trkpt>
      <trkpt lat="48.36662" lon="2.52288">
        <ele>84</ele>
        <time>2007-09-01T13:29:05Z</time>
      </trkpt>
      <trkpt lat="48.36672" lon="2.52273">
        <ele>80</ele>
        <time>2007-09-01T13:29:15Z</time>
      </trkpt>
      <trkpt lat="48.36684" lon="2.52262">
        <ele>78</ele>
        <time>2007-09-01T13:29:23Z</time>
      </trkpt>
      <trkpt lat="48.36696" lon="2.5225">
        <ele>77</ele>
        <time>2007-09-01T13:29:31Z</time>
      </trkpt>
      <trkpt lat="48.36704" lon="2.52232">
        <ele>75</ele>
        <time>2007-09-01T13:29:39Z</time>
      </trkpt>
      <trkpt lat="48.3671" lon="2.52211">
        <ele>74</ele>
        <time>2007-09-01T13:29:46Z</time>
      </trkpt>
      <trkpt lat="48.3672" lon="2.52198">
        <ele>73</ele>
        <time>2007-09-01T13:29:54Z</time>
      </trkpt>
      <trkpt lat="48.36729" lon="2.52181">
        <ele>71</ele>
        <time>2007-09-01T13:30:02Z</time>
      </trkpt>
      <trkpt lat="48.36741" lon="2.52169">
        <ele>70</ele>
        <time>2007-09-01T13:30:08Z</time>
      </trkpt>
      <trkpt lat="48.36753" lon="2.52157">
        <ele>70</ele>
        <time>2007-09-01T13:30:15Z</time>
      </trkpt>
      <trkpt lat="48.36767" lon="2.52157">
        <ele>69</ele>
        <time>2007-09-01T13:30:22Z</time>
      </trkpt>
      <trkpt lat="48.3678" lon="2.52159">
        <ele>69</ele>
        <time>2007-09-01T13:30:29Z</time>
      </trkpt>
      <trkpt lat="48.36794" lon="2.52157">
        <ele>68</ele>
        <time>2007-09-01T13:30:35Z</time>
      </trkpt>
      <trkpt lat="48.36807" lon="2.52154">
        <ele>68</ele>
        <time>2007-09-01T13:30:42Z</time>
      </trkpt>
      <trkpt lat="48.36822" lon="2.52154">
        <ele>68</ele>
        <time>2007-09-01T13:30:49Z</time>
      </trkpt>
      <trkpt lat="48.36836" lon="2.52153">
        <ele>67</ele>
        <time>2007-09-01T13:30:56Z</time>
      </trkpt>
      <trkpt lat="48.36851" lon="2.52162">
        <ele>67</ele>
        <time>2007-09-01T13:31:05Z</time>
      </trkpt>
      <trkpt lat="48.36864" lon="2.52166">
        <ele>67</ele>
        <time>2007-09-01T13:31:12Z</time>
      </trkpt>
      <trkpt lat="48.36878" lon="2.52177">
        <ele>67</ele>
        <time>2007-09-01T13:31:20Z</time>
      </trkpt>
      <trkpt lat="48.3689" lon="2.5219">
        <ele>67</ele>
        <time>2007-09-01T13:31:29Z</time>
      </trkpt>
      <trkpt lat="48.36888" lon="2.52211">
        <ele>67</ele>
        <time>2007-09-01T13:31:40Z</time>
      </trkpt>
      <trkpt lat="48.36897" lon="2.52231">
        <ele>67</ele>
        <time>2007-09-01T13:31:47Z</time>
      </trkpt>
      <trkpt lat="48.36906" lon="2.52249">
        <ele>67</ele>
        <time>2007-09-01T13:31:55Z</time>
      </trkpt>
      <trkpt lat="48.36918" lon="2.52271">
        <ele>67</ele>
        <time>2007-09-01T13:32:04Z</time>
      </trkpt>
      <trkpt lat="48.36924" lon="2.52292">
        <ele>67</ele>
        <time>2007-09-01T13:32:12Z</time>
      </trkpt>
      <trkpt lat="48.36936" lon="2.52309">
        <ele>67</ele>
        <time>2007-09-01T13:32:19Z</time>
      </trkpt>
      <trkpt lat="48.36948" lon="2.52322">
        <ele>67</ele>
        <time>2007-09-01T13:32:26Z</time>
      </trkpt>
      <trkpt lat="48.36963" lon="2.52319">
        <ele>67</ele>
        <time>2007-09-01T13:32:33Z</time>
      </trkpt>
      <trkpt lat="48.36978" lon="2.52309">
        <ele>67</ele>
        <time>2007-09-01T13:32:41Z</time>
      </trkpt>
      <trkpt lat="48.36992" lon="2.523">
        <ele>67</ele>
        <time>2007-09-01T13:32:49Z</time>
      </trkpt>
      <trkpt lat="48.37005" lon="2.52288">
        <ele>67</ele>
        <time>2007-09-01T13:32:57Z</time>
      </trkpt>
      <trkpt lat="48.37019" lon="2.52282">
        <ele>67</ele>
        <time>2007-09-01T13:33:05Z</time>
      </trkpt>
      <trkpt lat="48.37034" lon="2.52274">
        <ele>67</ele>
        <time>2007-09-01T13:33:13Z</time>
      </trkpt>
      <trkpt lat="48.37047" lon="2.52267">
        <ele>67</ele>
        <time>2007-09-01T13:33:20Z</time>
      </trkpt>
      <trkpt lat="48.37061" lon="2.52258">
        <ele>67</ele>
        <time>2007-09-01T13:33:27Z</time>
      </trkpt>
      <trkpt lat="48.37074" lon="2.52249">
        <ele>68</ele>
        <time>2007-09-01T13:33:35Z</time>
      </trkpt>
      <trkpt lat="48.37086" lon="2.52238">
        <ele>68</ele>
        <time>2007-09-01T13:33:43Z</time>
      </trkpt>
      <trkpt lat="48.37101" lon="2.52226">
        <ele>68</ele>
        <time>2007-09-01T13:33:51Z</time>
      </trkpt>
      <trkpt lat="48.37116" lon="2.52214">
        <ele>68</ele>
        <time>2007-09-01T13:34:00Z</time>
      </trkpt>
      <trkpt lat="48.3713" lon="2.52204">
        <ele>68</ele>
        <time>2007-09-01T13:34:08Z</time>
      </trkpt>
      <trkpt lat="48.37143" lon="2.52198">
        <ele>68</ele>
        <time>2007-09-01T13:34:16Z</time>
      </trkpt>
      <trkpt lat="48.37157" lon="2.52189">
        <ele>68</ele>
        <time>2007-09-01T13:34:24Z</time>
      </trkpt>
      <trkpt lat="48.37167" lon="2.52174">
        <ele>68</ele>
        <time>2007-09-01T13:34:32Z</time>
      </trkpt>
      <trkpt lat="48.37167" lon="2.52153">
        <ele>68</ele>
        <time>2007-09-01T13:34:40Z</time>
      </trkpt>
      <trkpt lat="48.37164" lon="2.52129">
        <ele>68</ele>
        <time>2007-09-01T13:34:47Z</time>
      </trkpt>
      <trkpt lat="48.37163" lon="2.52106">
        <ele>68</ele>
        <time>2007-09-01T13:34:54Z</time>
      </trkpt>
      <trkpt lat="48.37163" lon="2.52085">
        <ele>68</ele>
        <time>2007-09-01T13:35:00Z</time>
      </trkpt>
      <trkpt lat="48.3716" lon="2.52064">
        <ele>68</ele>
        <time>2007-09-01T13:35:06Z</time>
      </trkpt>
      <trkpt lat="48.37161" lon="2.52042">
        <ele>68</ele>
        <time>2007-09-01T13:35:14Z</time>
      </trkpt>
      <trkpt lat="48.37172" lon="2.52028">
        <ele>68</ele>
        <time>2007-09-01T13:35:22Z</time>
      </trkpt>
      <trkpt lat="48.37184" lon="2.52018">
        <ele>68</ele>
        <time>2007-09-01T13:35:29Z</time>
      </trkpt>
      <trkpt lat="48.37197" lon="2.52009">
        <ele>68</ele>
        <time>2007-09-01T13:35:37Z</time>
      </trkpt>
      <trkpt lat="48.37211" lon="2.52">
        <ele>68</ele>
        <time>2007-09-01T13:35:44Z</time>
      </trkpt>
      <trkpt lat="48.37226" lon="2.51988">
        <ele>69</ele>
        <time>2007-09-01T13:35:52Z</time>
      </trkpt>
      <trkpt lat="48.37239" lon="2.5198">
        <ele>69</ele>
        <time>2007-09-01T13:35:59Z</time>
      </trkpt>
      <trkpt lat="48.37253" lon="2.51973">
        <ele>70</ele>
        <time>2007-09-01T13:36:06Z</time>
      </trkpt>
      <trkpt lat="48.37266" lon="2.51964">
        <ele>70</ele>
        <time>2007-09-01T13:36:14Z</time>
      </trkpt>
      <trkpt lat="48.37278" lon="2.51953">
        <ele>71</ele>
        <time>2007-09-01T13:36:21Z</time>
      </trkpt>
      <trkpt lat="48.37293" lon="2.51943">
        <ele>72</ele>
        <time>2007-09-01T13:36:30Z</time>
      </trkpt>
      <trkpt lat="48.37307" lon="2.51932">
        <ele>73</ele>
        <time>2007-09-01T13:36:42Z</time>
      </trkpt>
      <trkpt lat="48.3732" lon="2.51923">
        <ele>75</ele>
        <time>2007-09-01T13:36:54Z</time>
      </trkpt>
      <trkpt lat="48.37332" lon="2.51913">
        <ele>77</ele>
        <time>2007-09-01T13:37:06Z</time>
      </trkpt>
      <trkpt lat="48.37335" lon="2.51892">
        <ele>79</ele>
        <time>2007-09-01T13:37:23Z</time>
      </trkpt>
      <trkpt lat="48.37334" lon="2.51866">
        <ele>81</ele>
        <time>2007-09-01T13:37:40Z</time>
      </trkpt>
      <trkpt lat="48.37338" lon="2.51847">
        <ele>84</ele>
        <time>2007-09-01T13:38:01Z</time>
      </trkpt>
      <trkpt lat="48.37343" lon="2.51827">
        <ele>87</ele>
        <time>2007-09-01T13:38:19Z</time>
      </trkpt>
      <trkpt lat="48.37356" lon="2.51821">
        <ele>90</ele>
        <time>2007-09-01T13:38:56Z</time>
      </trkpt>
      <trkpt lat="48.37368" lon="2.51811">
        <ele>94</ele>
        <time>2007-09-01T13:39:29Z</time>
      </trkpt>
      <trkpt lat="48.37379" lon="2.51797">
        <ele>97</ele>
        <time>2007-09-01T13:40:00Z</time>
      </trkpt>
      <trkpt lat="48.37391" lon="2.51779">
        <ele>102</ele>
        <time>2007-09-01T13:40:17Z</time>
      </trkpt>
      <trkpt lat="48.37404" lon="2.5177">
        <ele>105</ele>
        <time>2007-09-01T13:40:29Z</time>
      </trkpt>
      <trkpt lat="48.37418" lon="2.51764">
        <ele>105</ele>
        <time>2007-09-01T13:40:41Z</time>
      </trkpt>
      <trkpt lat="48.37431" lon="2.51772">
        <ele>104</ele>
        <time>2007-09-01T13:40:51Z</time>
      </trkpt>
      <trkpt lat="48.37442" lon="2.51788">
        <ele>102</ele>
        <time>2007-09-01T13:41:00Z</time>
      </trkpt>
      <trkpt lat="48.37445" lon="2.51809">
        <ele>99</ele>
        <time>2007-09-01T13:41:09Z</time>
      </trkpt>
      <trkpt lat="48.37457" lon="2.51823">
        <ele>96</ele>
        <time>2007-09-01T13:41:15Z</time>
      </trkpt>
      <trkpt lat="48.3747" lon="2.51829">
        <ele>94</ele>
        <time>2007-09-01T13:41:23Z</time>
      </trkpt>
      <trkpt lat="48.37484" lon="2.51821">
        <ele>94</ele>
        <time>2007-09-01T13:41:30Z</time>
      </trkpt>
      <trkpt lat="48.37491" lon="2.518">
        <ele>97</ele>
        <time>2007-09-01T13:41:39Z</time>
      </trkpt>
      <trkpt lat="48.37496" lon="2.51781">
        <ele>98</ele>
        <time>2007-09-01T13:41:46Z</time>
      </trkpt>
      <trkpt lat="48.37502" lon="2.51761">
        <ele>99</ele>
        <time>2007-09-01T13:41:54Z</time>
      </trkpt>
      <trkpt lat="48.37506" lon="2.51742">
        <ele>98</ele>
        <time>2007-09-01T13:42:00Z</time>
      </trkpt>
      <trkpt lat="48.37505" lon="2.51719">
        <ele>99</ele>
        <time>2007-09-01T13:42:07Z</time>
      </trkpt>
      <trkpt lat="48.37496" lon="2.51701">
        <ele>103</ele>
        <time>2007-09-01T13:42:13Z</time>
      </trkpt>
      <trkpt lat="48.37485" lon="2.51685">
        <ele>103</ele>
        <time>2007-09-01T13:42:19Z</time>
      </trkpt>
      <trkpt lat="48.37476" lon="2.51665">
        <ele>101</ele>
        <time>2007-09-01T13:42:24Z</time>
      </trkpt>
      <trkpt lat="48.37469" lon="2.51646">
        <ele>100</ele>
        <time>2007-09-01T13:42:29Z</time>
      </trkpt>
      <trkpt lat="48.37458" lon="2.51625">
        <ele>99</ele>
        <time>2007-09-01T13:42:37Z</time>
      </trkpt>
      <trkpt lat="48.37448" lon="2.51607">
        <ele>99</ele>
        <time>2007-09-01T13:42:44Z</time>
      </trkpt>
      <trkpt lat="48.3744" lon="2.51589">
        <ele>97</ele>
        <time>2007-09-01T13:42:50Z</time>
      </trkpt>
      <trkpt lat="48.37433" lon="2.51569">
        <ele>94</ele>
        <time>2007-09-01T13:42:56Z</time>
      </trkpt>
      <trkpt lat="48.37424" lon="2.5155">
        <ele>92</ele>
        <time>2007-09-01T13:43:03Z</time>
      </trkpt>
      <trkpt lat="48.37413" lon="2.51532">
        <ele>90</ele>
        <time>2007-09-01T13:43:09Z</time>
      </trkpt>
      <trkpt lat="48.37406" lon="2.51511">
        <ele>86</ele>
        <time>2007-09-01T13:43:16Z</time>
      </trkpt>
      <trkpt lat="48.37401" lon="2.51491">
        <ele>84</ele>
        <time>2007-09-01T13:43:21Z</time>
      </trkpt>
      <trkpt lat="48.374" lon="2.5147">
        <ele>82</ele>
        <time>2007-09-01T13:43:26Z</time>
      </trkpt>
      <trkpt lat="48.374" lon="2.51448">
        <ele>81</ele>
        <time>2007-09-01T13:43:32Z</time>
      </trkpt>
      <trkpt lat="48.37397" lon="2.51427">
        <ele>80</ele>
        <time>2007-09-01T13:43:38Z</time>
      </trkpt>
      <trkpt lat="48.37392" lon="2.51406">
        <ele>80</ele>
        <time>2007-09-01T13:43:44Z</time>
      </trkpt>
      <trkpt lat="48.37388" lon="2.51386">
        <ele>80</ele>
        <time>2007-09-01T13:43:50Z</time>
      </trkpt>
      <trkpt lat="48.37383" lon="2.51362">
        <ele>80</ele>
        <time>2007-09-01T13:43:56Z</time>
      </trkpt>
      <trkpt lat="48.37376" lon="2.51344">
        <ele>78</ele>
        <time>2007-09-01T13:44:02Z</time>
      </trkpt>
      <trkpt lat="48.37367" lon="2.51323">
        <ele>77</ele>
        <time>2007-09-01T13:44:09Z</time>
      </trkpt>
      <trkpt lat="48.37356" lon="2.51299">
        <ele>76</ele>
        <time>2007-09-01T13:44:17Z</time>
      </trkpt>
      <trkpt lat="48.37347" lon="2.5128">
        <ele>76</ele>
        <time>2007-09-01T13:44:24Z</time>
      </trkpt>
      <trkpt lat="48.37338" lon="2.51259">
        <ele>75</ele>
        <time>2007-09-01T13:44:31Z</time>
      </trkpt>
      <trkpt lat="48.37332" lon="2.51239">
        <ele>75</ele>
        <time>2007-09-01T13:44:37Z</time>
      </trkpt>
      <trkpt lat="48.37323" lon="2.51217">
        <ele>74</ele>
        <time>2007-09-01T13:44:45Z</time>
      </trkpt>
      <trkpt lat="48.37316" lon="2.51196">
        <ele>73</ele>
        <time>2007-09-01T13:44:52Z</time>
      </trkpt>
      <trkpt lat="48.37307" lon="2.51179">
        <ele>73</ele>
        <time>2007-09-01T13:44:58Z</time>
      </trkpt>
      <trkpt lat="48.37299" lon="2.51161">
        <ele>72</ele>
        <time>2007-09-01T13:45:04Z</time>
      </trkpt>
      <trkpt lat="48.37304" lon="2.51142">
        <ele>71</ele>
        <time>2007-09-01T13:45:10Z</time>
      </trkpt>
      <trkpt lat="48.37304" lon="2.51121">
        <ele>70</ele>
        <time>2007-09-01T13:45:16Z</time>
      </trkpt>
      <trkpt lat="48.37295" lon="2.51103">
        <ele>69</ele>
        <time>2007-09-01T13:45:22Z</time>
      </trkpt>
      <trkpt lat="48.37286" lon="2.51086">
        <ele>69</ele>
        <time>2007-09-01T13:45:28Z</time>
      </trkpt>
      <trkpt lat="48.3728" lon="2.51065">
        <ele>69</ele>
        <time>2007-09-01T13:45:34Z</time>
      </trkpt>
      <trkpt lat="48.37274" lon="2.51046">
        <ele>69</ele>
        <time>2007-09-01T13:45:41Z</time>
      </trkpt>
    </trkseg>
  </trk>
</gpx>